NOAA Web Site Link Tides and Currents Home Page Transparent placeholder image

PORTS® Data Listing: 8465705 New Haven, CT

CO-OPS RAW PORTS DATA

************************      PRELIMINARY DATA      ************************** 

     THIS RAW DATA HAS NOT BEEN SUBJECT TO THE NATIONAL OCEAN SERVICE'S        
     QUALITY CONTROL OR QUALITY ASSURANCE PROCEDURES AND DOES NOT MEET         
     THE CRITERIA AND STANDARDS OF OFFICIAL NATIONAL OCEAN SERVICE             
     DATA.  IT IS RELEASED FOR LIMITED PUBLIC USE AS PRELIMINARY DATA TO       
     BE USED ONLY WITH APPROPRIATE CAUTION.                                    

************************      PRELIMINARY DATA      ************************** 


       CD   -   Calendar date
       T    -   Time
       TZ   -   Timezone
       PW   -   Predicted water level (feet above MLLW)
       OW   -   Observed water level (feet above MLLW)
       WS   -   Wind speed (knots)
       WD   -   Wind direction (degrees true)
       WG   -   Wind gust (knots)
       AT   -   Air temperature (degrees farenheit)
       WT   -   Water temperature (degrees farenheit)
       AP   -   Air pressure (millibars)
       SA   -   Salinty (PSU - Practical Salinity Units)
       SG   -   Specific gravity
       RH   -   Relative humidity
       AG   -   Air gap (feet)
       VI   -   Visibility (nautical miles)

       ** NOTE **
       A variable that has its data fields filled with "9"s, indicates that
       data was not collected for that sample period.
       **********


STATION NAME: New Haven (8465705)
****************************************************************************************************
    CD       T    TZ    PW     OW    WS   WD   WG    AT    WT    AP    SA    SG     RH    AG   VI
****************************************************************************************************
2019/08/19 02:42 EDT    6.22 -99.99    1  303    1  73.4  76.3 1013.8 -9.9 -9.999 -99.9 -99.99 -9.99
2019/08/19 02:48 EDT    6.18 -99.99    2  341    2  73.4  76.3 1013.7 -9.9 -9.999 -99.9 -99.99 -9.99
2019/08/19 02:54 EDT    6.12 -99.99    3  328    4  73.2  76.3 1013.8 -9.9 -9.999 -99.9 -99.99 -9.99
2019/08/19 03:00 EDT    6.05 -99.99    3  328    4  73.0  76.3 1013.8 -9.9 -9.999 -99.9 -99.99 -9.99
2019/08/19 03:06 EDT    5.98 -99.99    3  308    4  72.7  76.3 1013.8 -9.9 -9.999 -99.9 -99.99 -9.99
2019/08/19 03:12 EDT    5.90 -99.99    2  338    3  72.7  76.5 1013.7 -9.9 -9.999 -99.9 -99.99 -9.99
2019/08/19 03:18 EDT    5.81 -99.99    3  330    3  72.9  76.3 1013.8 -9.9 -9.999 -99.9 -99.99 -9.99
2019/08/19 03:24 EDT    5.71 -99.99    5  334    6  72.3  76.3 1013.9 -9.9 -9.999 -99.9 -99.99 -9.99
2019/08/19 03:30 EDT    5.60 -99.99    4  353    5  72.3  76.3 1013.8 -9.9 -9.999 -99.9 -99.99 -9.99
2019/08/19 03:36 EDT    5.49 -99.99    4  355    5  72.5  76.3 1013.9 -9.9 -9.999 -99.9 -99.99 -9.99
2019/08/19 03:42 EDT    5.37 -99.99    2    2    3  72.9  76.3 1013.9 -9.9 -9.999 -99.9 -99.99 -9.99
2019/08/19 03:48 EDT    5.25 -99.99    2    1    4  73.0  76.3 1014.0 -9.9 -9.999 -99.9 -99.99 -9.99
2019/08/19 03:54 EDT    5.12 -99.99    3   17    4  73.2  76.3 1014.1 -9.9 -9.999 -99.9 -99.99 -9.99
2019/08/19 04:00 EDT    4.98 -99.99    4   39    5  72.9  76.3 1014.1 -9.9 -9.999 -99.9 -99.99 -9.99
2019/08/19 04:06 EDT    4.85 -99.99    5   35    6  72.3  76.3 1014.2 -9.9 -9.999 -99.9 -99.99 -9.99
2019/08/19 04:12 EDT    4.71 -99.99    4   23    6  72.5  76.1 1014.3 -9.9 -9.999 -99.9 -99.99 -9.99
2019/08/19 04:18 EDT    4.56 -99.99    4   42    4  72.3  76.1 1014.3 -9.9 -9.999 -99.9 -99.99 -9.99
2019/08/19 04:24 EDT    4.42 -99.99    4   39    4  72.3  76.1 1014.3 -9.9 -9.999 -99.9 -99.99 -9.99
2019/08/19 04:30 EDT    4.27 -99.99    4   22    4  72.3  76.1 1014.5 -9.9 -9.999 -99.9 -99.99 -9.99
2019/08/19 04:36 EDT    4.12 -99.99    4   33    4  72.3  75.9 1014.6 -9.9 -9.999 -99.9 -99.99 -9.99
2019/08/19 04:42 EDT    3.98 -99.99    4   40    4  72.1  75.9 1014.6 -9.9 -9.999 -99.9 -99.99 -9.99
2019/08/19 04:48 EDT    3.83 -99.99    3   17    4  72.3  75.9 1014.7 -9.9 -9.999 -99.9 -99.99 -9.99
2019/08/19 04:54 EDT    3.69 -99.99    3   24    4  72.3  75.9 1014.8 -9.9 -9.999 -99.9 -99.99 -9.99
2019/08/19 05:00 EDT    3.54 -99.99    4   15    5  72.5  75.9 1014.8 -9.9 -9.999 -99.9 -99.99 -9.99
2019/08/19 05:06 EDT    3.40 -99.99    4    2    4  72.7  75.9 1014.8 -9.9 -9.999 -99.9 -99.99 -9.99
2019/08/19 05:12 EDT    3.26 -99.99    4  349    4  73.0  75.9 1014.9 -9.9 -9.999 -99.9 -99.99 -9.99
2019/08/19 05:18 EDT    3.12 -99.99    2   32    3  73.0  75.9 1015.0 -9.9 -9.999 -99.9 -99.99 -9.99
2019/08/19 05:24 EDT    2.98 -99.99    4   39    4  72.9  75.9 1014.8 -9.9 -9.999 -99.9 -99.99 -9.99
2019/08/19 05:30 EDT    2.85 -99.99    5  359    6  73.0  75.9 1015.0 -9.9 -9.999 -99.9 -99.99 -9.99
2019/08/19 05:36 EDT    2.71 -99.99    4   10    5  73.2  75.9 1014.9 -9.9 -9.999 -99.9 -99.99 -9.99
2019/08/19 05:42 EDT    2.58 -99.99    3   31    5  73.0  75.9 1014.9 -9.9 -9.999 -99.9 -99.99 -9.99
2019/08/19 05:48 EDT    2.46 -99.99    3   63    4  72.7  75.9 1015.0 -9.9 -9.999 -99.9 -99.99 -9.99
2019/08/19 05:54 EDT    2.33 -99.99    1   40    3  72.7  75.9 1015.1 -9.9 -9.999 -99.9 -99.99 -9.99
2019/08/19 06:00 EDT    2.21 -99.99    1   84    2  72.7  75.9 1015.0 -9.9 -9.999 -99.9 -99.99 -9.99
2019/08/19 06:06 EDT    2.10 -99.99    1   82    3  72.3  75.9 1015.0 -9.9 -9.999 -99.9 -99.99 -9.99
2019/08/19 06:12 EDT    1.98 -99.99    1   56    2  72.3  76.1 1015.1 -9.9 -9.999 -99.9 -99.99 -9.99
2019/08/19 06:18 EDT    1.87 -99.99    1   34    2  72.5  76.1 1015.1 -9.9 -9.999 -99.9 -99.99 -9.99
2019/08/19 06:24 EDT    1.76 -99.99    2   23    2  72.9  76.3 1015.1 -9.9 -9.999 -99.9 -99.99 -9.99
2019/08/19 06:30 EDT    1.65 -99.99    0  358    1  72.9  76.1 1015.2 -9.9 -9.999 -99.9 -99.99 -9.99
2019/08/19 06:36 EDT    1.55 -99.99    2  306    4  72.9  76.3 1015.2 -9.9 -9.999 -99.9 -99.99 -9.99
2019/08/19 06:42 EDT    1.45 -99.99    5  307    5  72.7  76.3 1015.3 -9.9 -9.999 -99.9 -99.99 -9.99
2019/08/19 06:48 EDT    1.36 -99.99    3  314    4  72.5  76.3 1015.2 -9.9 -9.999 -99.9 -99.99 -9.99
2019/08/19 06:54 EDT    1.26 -99.99    0  314    2  72.7  76.3 1015.1 -9.9 -9.999 -99.9 -99.99 -9.99
2019/08/19 07:00 EDT    1.17 -99.99    1  194    2  73.0  76.3 1015.1 -9.9 -9.999 -99.9 -99.99 -9.99
2019/08/19 07:06 EDT    1.09 -99.99    2  171    2  72.7  76.5 1015.1 -9.9 -9.999 -99.9 -99.99 -9.99
2019/08/19 07:12 EDT    1.01 -99.99    3  179    4  72.5  76.3 1015.1 -9.9 -9.999 -99.9 -99.99 -9.99
2019/08/19 07:18 EDT    0.93 -99.99    2  205    3  73.0  76.3 1015.1 -9.9 -9.999 -99.9 -99.99 -9.99
2019/08/19 07:24 EDT    0.86 -99.99    2  189    3  73.8  76.5 1015.1 -9.9 -9.999 -99.9 -99.99 -9.99
2019/08/19 07:30 EDT    0.80 -99.99    1  181    2  74.3  76.5 1015.2 -9.9 -9.999 -99.9 -99.99 -9.99
2019/08/19 07:36 EDT    0.74 -99.99    2  169    2  73.8  76.5 1015.2 -9.9 -9.999 -99.9 -99.99 -9.99
2019/08/19 07:42 EDT    0.68 -99.99    2  236    3  73.8  76.5 1015.3 -9.9 -9.999 -99.9 -99.99 -9.99
2019/08/19 07:48 EDT    0.64 -99.99    1  272    2  73.8  76.5 1015.3 -9.9 -9.999 -99.9 -99.99 -9.99
2019/08/19 07:54 EDT    0.59 -99.99    0  273    1  74.1  76.6 1015.2 -9.9 -9.999 -99.9 -99.99 -9.99
2019/08/19 08:00 EDT    0.56 -99.99    0  238    1  74.3  76.6 1015.2 -9.9 -9.999 -99.9 -99.99 -9.99
2019/08/19 08:06 EDT    0.53 -99.99    2  233    2  73.9  76.6 1015.3 -9.9 -9.999 -99.9 -99.99 -9.99
2019/08/19 08:12 EDT    0.52 -99.99    3  205    3  75.2  76.6 1015.2 -9.9 -9.999 -99.9 -99.99 -9.99
2019/08/19 08:18 EDT    0.51 -99.99    3  186    4  75.0  76.6 1015.1 -9.9 -9.999 -99.9 -99.99 -9.99
2019/08/19 08:24 EDT    0.50 -99.99    3  177    4  74.7  76.6 1015.1 -9.9 -9.999 -99.9 -99.99 -9.99
2019/08/19 08:30 EDT    0.51 -99.99    3  201    4  75.7  76.6 1015.2 -9.9 -9.999 -99.9 -99.99 -9.99
2019/08/19 08:36 EDT    0.53 -99.99    3  200    3  75.9  76.6 1015.2 -9.9 -9.999 -99.9 -99.99 -9.99
2019/08/19 08:42 EDT    0.55 -99.99    2  195    3  76.3  76.8 1015.0 -9.9 -9.999 -99.9 -99.99 -9.99
2019/08/19 08:48 EDT    0.59 -99.99    3  175    4  74.8  76.8 1014.9 -9.9 -9.999 -99.9 -99.99 -9.99
2019/08/19 08:54 EDT    0.63 -99.99    3  176    4  74.8  76.8 1014.8 -9.9 -9.999 -99.9 -99.99 -9.99
2019/08/19 09:00 EDT    0.68 -99.99    3  190    3  76.3  76.8 1014.8 -9.9 -9.999 -99.9 -99.99 -9.99
2019/08/19 09:06 EDT    0.74 -99.99    4  196    5  76.3  76.8 1014.8 -9.9 -9.999 -99.9 -99.99 -9.99
2019/08/19 09:12 EDT    0.81 -99.99    5  184    5  75.4  76.6 1014.8 -9.9 -9.999 -99.9 -99.99 -9.99
2019/08/19 09:18 EDT    0.89 -99.99    5  196    6  76.1  76.8 1014.8 -9.9 -9.999 -99.9 -99.99 -9.99
2019/08/19 09:24 EDT    0.98 -99.99    5  190    6  75.7  76.8 1014.7 -9.9 -9.999 -99.9 -99.99 -9.99
2019/08/19 09:30 EDT    1.07 -99.99    6  196    7  76.3  76.8 1014.8 -9.9 -9.999 -99.9 -99.99 -9.99
2019/08/19 09:36 EDT    1.18 -99.99    6  196    7  76.3  76.8 1014.8 -9.9 -9.999 -99.9 -99.99 -9.99
2019/08/19 09:42 EDT    1.29 -99.99    6  198    8  76.1  76.8 1014.8 -9.9 -9.999 -99.9 -99.99 -9.99
2019/08/19 09:48 EDT    1.40 -99.99    7  198    8  76.3  77.0 1014.8 -9.9 -9.999 -99.9 -99.99 -9.99
2019/08/19 09:54 EDT    1.53 -99.99    7  199    8  76.1  77.2 1014.9 -9.9 -9.999 -99.9 -99.99 -9.99
2019/08/19 10:00 EDT    1.65 -99.99    7  195    8  75.9  77.2 1014.9 -9.9 -9.999 -99.9 -99.99 -9.99
2019/08/19 10:06 EDT    1.79 -99.99    7  190    8  75.4  77.4 1015.0 -9.9 -9.999 -99.9 -99.99 -9.99
2019/08/19 10:12 EDT    1.92 -99.99    6  191    7  75.6  77.4 1015.0 -9.9 -9.999 -99.9 -99.99 -9.99
2019/08/19 10:18 EDT    2.06 -99.99    6  197    7  75.7  77.5 1015.0 -9.9 -9.999 -99.9 -99.99 -9.99
2019/08/19 10:24 EDT    2.21 -99.99    7  194    8  75.7  77.5 1015.0 -9.9 -9.999 -99.9 -99.99 -9.99
2019/08/19 10:30 EDT    2.35 -99.99    8  192    9  75.7  77.5 1015.0 -9.9 -9.999 -99.9 -99.99 -9.99
2019/08/19 10:36 EDT    2.50 -99.99    7  192    8  75.7  77.5 1015.0 -9.9 -9.999 -99.9 -99.99 -9.99
2019/08/19 10:42 EDT    2.65 -99.99    8  191    9  75.7  77.5 1014.9 -9.9 -9.999 -99.9 -99.99 -9.99
2019/08/19 10:48 EDT    2.80 -99.99    7  181    9  75.7  77.5 1014.8 -9.9 -9.999 -99.9 -99.99 -9.99
2019/08/19 10:54 EDT    2.95 -99.99    7  208    9  75.9  77.5 1015.1 -9.9 -9.999 -99.9 -99.99 -9.99
2019/08/19 11:00 EDT    3.10 -99.99    7  198    8  76.3  77.5 1015.0 -9.9 -9.999 -99.9 -99.99 -9.99
2019/08/19 11:06 EDT    3.25 -99.99    6  194    7  76.3  77.5 1015.0 -9.9 -9.999 -99.9 -99.99 -9.99
2019/08/19 11:12 EDT    3.39 -99.99    6  193    8  76.6  77.5 1015.0 -9.9 -9.999 -99.9 -99.99 -9.99
2019/08/19 11:18 EDT    3.54 -99.99    5  187    6  76.5  77.5 1015.0 -9.9 -9.999 -99.9 -99.99 -9.99
2019/08/19 11:24 EDT    3.68   3.89    4  185    6  76.8  77.4 1015.0 -9.9 -9.999 -99.9 -99.99 -9.99
2019/08/19 11:30 EDT    3.82   4.01    5  189    6  77.4  77.4 1014.9 -9.9 -9.999 -99.9 -99.99 -9.99
2019/08/19 11:36 EDT    3.96   4.13    6  187    7  77.2  77.4 1014.9 -9.9 -9.999 -99.9 -99.99 -9.99
2019/08/19 11:42 EDT    4.10   4.27    6  202    8  77.7  77.2 1014.9 -9.9 -9.999 -99.9 -99.99 -9.99
2019/08/19 11:48 EDT    4.23   4.40    7  189    8  77.2  77.2 1014.9 -9.9 -9.999 -99.9 -99.99 -9.99
2019/08/19 11:54 EDT    4.36   4.55    5  183    7  77.2  77.4 1015.0 -9.9 -9.999 -99.9 -99.99 -9.99
2019/08/19 12:00 EDT    4.49   4.71    7  185    9  77.2  77.5 1014.9 -9.9 -9.999 -99.9 -99.99 -9.99
2019/08/19 12:06 EDT    4.61   4.85    7  184    8  77.4  77.7 1014.9 -9.9 -9.999 -99.9 -99.99 -9.99
2019/08/19 12:12 EDT    4.73   4.97    8  196    9  78.1  77.7 1014.9 -9.9 -9.999 -99.9 -99.99 -9.99
2019/08/19 12:18 EDT    4.85   5.10    7  184    9  77.9  77.4 1014.7 -9.9 -9.999 -99.9 -99.99 -9.99
2019/08/19 12:24 EDT    4.97   5.20    7  185    8  78.3  77.2 1014.7 -9.9 -9.999 -99.9 -99.99 -9.99
2019/08/19 12:30 EDT    5.08   5.29    7  185    8  78.3  77.0 1014.7 -9.9 -9.999 -99.9 -99.99 -9.99
2019/08/19 12:36 EDT    5.19   5.40    8  193   10  78.8  77.0 1014.5 -9.9 -9.999 -99.9 -99.99 -9.99
2019/08/19 12:42 EDT    5.30   5.52    9  194   11  79.0  77.0 1014.6 -9.9 -9.999 -99.9 -99.99 -9.99
2019/08/19 12:48 EDT    5.40   5.67    9  192   10  78.6  76.8 1014.6 -9.9 -9.999 -99.9 -99.99 -9.99
2019/08/19 12:54 EDT    5.50   5.81   10  193   11  78.4  76.8 1014.5 -9.9 -9.999 -99.9 -99.99 -9.99
2019/08/19 13:00 EDT    5.60   5.95   10  188   11  78.4  76.8 1014.4 -9.9 -9.999 -99.9 -99.99 -9.99
2019/08/19 13:06 EDT    5.69   6.07   10  184   11  78.6  76.8 1014.3 -9.9 -9.999 -99.9 -99.99 -9.99
2019/08/19 13:12 EDT    5.78   6.20    8  184   11  78.6  76.8 1014.3 -9.9 -9.999 -99.9 -99.99 -9.99
2019/08/19 13:18 EDT    5.86   6.31    7  191   10  79.2  76.8 1014.3 -9.9 -9.999 -99.9 -99.99 -9.99
2019/08/19 13:24 EDT    5.94   6.39    7  197    9  79.5  76.8 1014.3 -9.9 -9.999 -99.9 -99.99 -9.99
2019/08/19 13:30 EDT    6.02   6.45    7  200    8  79.7  76.8 1014.4 -9.9 -9.999 -99.9 -99.99 -9.99
2019/08/19 13:36 EDT    6.09   6.52    8  190    9  79.2  76.8 1014.3 -9.9 -9.999 -99.9 -99.99 -9.99
2019/08/19 13:42 EDT    6.16   6.60    8  191    9  79.2  76.8 1014.2 -9.9 -9.999 -99.9 -99.99 -9.99
2019/08/19 13:48 EDT    6.22   6.69    8  190    9  79.5  76.8 1014.2 -9.9 -9.999 -99.9 -99.99 -9.99
2019/08/19 13:54 EDT    6.28   6.77    8  192    9  79.7  76.8 1014.2 -9.9 -9.999 -99.9 -99.99 -9.99
2019/08/19 14:00 EDT    6.33   6.85    8  187    9  79.3  76.8 1014.1 -9.9 -9.999 -99.9 -99.99 -9.99
2019/08/19 14:06 EDT    6.37   6.94   10  191   11  79.7  76.8 1014.1 -9.9 -9.999 -99.9 -99.99 -9.99
2019/08/19 14:12 EDT    6.41   7.00   11  186   11  79.7  76.8 1014.0 -9.9 -9.999 -99.9 -99.99 -9.99
2019/08/19 14:18 EDT    6.43   7.04   10  188   11  80.1  76.8 1013.8 -9.9 -9.999 -99.9 -99.99 -9.99
2019/08/19 14:24 EDT    6.45   7.08   10  190   11  80.1  76.8 1013.7 -9.9 -9.999 -99.9 -99.99 -9.99
2019/08/19 14:30 EDT    6.47   7.13    9  189   11  80.6  76.8 1013.6 -9.9 -9.999 -99.9 -99.99 -9.99
2019/08/19 14:36 EDT    6.47   7.14   10  195   12  81.0  76.6 1013.5 -9.9 -9.999 -99.9 -99.99 -9.99
2019/08/19 14:42 EDT    6.47   7.10   11  191   13  81.0  76.6 1013.5 -9.9 -9.999 -99.9 -99.99 -9.99
2019/08/19 14:48 EDT    6.46   7.06   10  189   12  80.8  76.6 1013.4 -9.9 -9.999 -99.9 -99.99 -9.99
2019/08/19 14:54 EDT    6.43   7.02    9  185   11  81.1  76.6 1013.4 -9.9 -9.999 -99.9 -99.99 -9.99
2019/08/19 15:00 EDT    6.40   6.98    9  184   11  81.9  76.6 1013.3 -9.9 -9.999 -99.9 -99.99 -9.99
2019/08/19 15:06 EDT    6.36   6.95   10  188   11  81.3  76.5 1013.2 -9.9 -9.999 -99.9 -99.99 -9.99
2019/08/19 15:12 EDT    6.32   6.90   10  189   11  81.7  76.3 1013.1 -9.9 -9.999 -99.9 -99.99 -9.99
2019/08/19 15:18 EDT    6.26   6.85   10  190   11  81.9  76.5 1013.1 -9.9 -9.999 -99.9 -99.99 -9.99
2019/08/19 15:24 EDT    6.19   6.80    9  191   11  82.0  76.3 1013.1 -9.9 -9.999 -99.9 -99.99 -9.99
2019/08/19 15:30 EDT    6.12   6.71    8  193   11  82.2  76.3 1013.0 -9.9 -9.999 -99.9 -99.99 -9.99
2019/08/19 15:36 EDT    6.03   6.59    8  193   10  82.0  76.3 1013.0 -9.9 -9.999 -99.9 -99.99 -9.99
2019/08/19 15:42 EDT    5.94   6.48    8  193    9  82.4  76.3 1012.9 -9.9 -9.999 -99.9 -99.99 -9.99
2019/08/19 15:48 EDT    5.85   6.36    8  196   10  82.4  76.3 1012.9 -9.9 -9.999 -99.9 -99.99 -9.99
2019/08/19 15:54 EDT    5.74   6.25    9  193   10  82.2  76.3 1012.8 -9.9 -9.999 -99.9 -99.99 -9.99
2019/08/19 16:00 EDT    5.63   6.11    9  192   10  82.6  76.3 1012.8 -9.9 -9.999 -99.9 -99.99 -9.99
2019/08/19 16:06 EDT    5.51   6.01    9  195   11  82.8  76.3 1012.7 -9.9 -9.999 -99.9 -99.99 -9.99
2019/08/19 16:12 EDT    5.39   5.89    9  187   10  82.4  76.3 1012.5 -9.9 -9.999 -99.9 -99.99 -9.99
2019/08/19 16:18 EDT    5.26   5.79    9  181   11  82.8  76.3 1012.3 -9.9 -9.999 -99.9 -99.99 -9.99
2019/08/19 16:24 EDT    5.13   5.69    8  181   10  82.9  76.5 1012.1 -9.9 -9.999 -99.9 -99.99 -9.99
2019/08/19 16:30 EDT    4.99   5.53    9  184   10  82.9  76.6 1012.2 -9.9 -9.999 -99.9 -99.99 -9.99
2019/08/19 16:36 EDT    4.85   5.38    8  190   10  82.6  76.6 1012.3 -9.9 -9.999 -99.9 -99.99 -9.99
2019/08/19 16:42 EDT    4.71   5.21    8  173    9  82.2  76.8 1011.9 -9.9 -9.999 -99.9 -99.99 -9.99
2019/08/19 16:48 EDT    4.57   5.08    6  170    8  82.2  76.8 1012.4 -9.9 -9.999 -99.9 -99.99 -9.99
2019/08/19 16:54 EDT    4.43   4.94    4  145    6  82.0  77.0 1013.0 -9.9 -9.999 -99.9 -99.99 -9.99
2019/08/19 17:00 EDT    4.28   4.82    6  167    7  82.0  77.4 1013.0 -9.9 -9.999 -99.9 -99.99 -9.99
2019/08/19 17:06 EDT    4.14   4.71    3  225    7  81.7  77.5 1013.7 -9.9 -9.999 -99.9 -99.99 -9.99
2019/08/19 17:12 EDT    3.99   4.59   22  351   27  76.1  77.5 1013.5 -9.9 -9.999 -99.9 -99.99 -9.99
2019/08/19 17:18 EDT    3.85   4.45   22    9   28  71.1  77.2 1013.6 -9.9 -9.999 -99.9 -99.99 -9.99
2019/08/19 17:24 EDT    3.71   4.31    9   64   26  69.6  77.0 1014.1 -9.9 -9.999 -99.9 -99.99 -9.99
2019/08/19 17:30 EDT    3.57   4.21   11  150   13  69.8  76.8 1014.3 -9.9 -9.999 -99.9 -99.99 -9.99
2019/08/19 17:36 EDT    3.43   4.06    8  185   12  71.1  76.6 1014.4 -9.9 -9.999 -99.9 -99.99 -9.99
2019/08/19 17:42 EDT    3.29   3.94   16  210   24  72.5  76.6 1014.3 -9.9 -9.999 -99.9 -99.99 -9.99
2019/08/19 17:48 EDT    3.16   3.93   14  169   20  70.9  76.6 1013.9 -9.9 -9.999 -99.9 -99.99 -9.99
2019/08/19 17:54 EDT    3.03   3.91   13  168   15  70.5  76.6 1013.9 -9.9 -9.999 -99.9 -99.99 -9.99
2019/08/19 18:00 EDT    2.90   3.60    8  187   11  71.6  76.6 1014.2 -9.9 -9.999 -99.9 -99.99 -9.99
2019/08/19 18:06 EDT    2.77   3.16   10  211   12  77.0  76.6 1014.2 -9.9 -9.999 -99.9 -99.99 -9.99
2019/08/19 18:12 EDT    2.65   2.88    6  179    9  76.5  76.6 1014.2 -9.9 -9.999 -99.9 -99.99 -9.99
2019/08/19 18:18 EDT    2.53   2.76    5  138    8  74.7  76.6 1014.3 -9.9 -9.999 -99.9 -99.99 -9.99
2019/08/19 18:24 EDT    2.41   2.75    2  126    4  75.2  76.8 1014.4 -9.9 -9.999 -99.9 -99.99 -9.99
2019/08/19 18:30 EDT    2.30   2.78    2  185    3  75.7  76.8 1014.5 -9.9 -9.999 -99.9 -99.99 -9.99
2019/08/19 18:36 EDT    2.19   2.76    2  172    4  75.7  76.8 1014.5 -9.9 -9.999 -99.9 -99.99 -9.99
2019/08/19 18:42 EDT    2.08   2.69    2  129    4  75.7  76.8 1014.3 -9.9 -9.999 -99.9 -99.99 -9.99
2019/08/19 18:48 EDT    1.97   2.59    1  133    3  75.7  76.8 1014.3 -9.9 -9.999 -99.9 -99.99 -9.99
2019/08/19 18:54 EDT    1.87   2.50    2  159    3  75.9  76.8 1014.4 -9.9 -9.999 -99.9 -99.99 -9.99
2019/08/19 19:00 EDT    1.77   2.44    1  223    3  76.6  77.0 1014.4 -9.9 -9.999 -99.9 -99.99 -9.99
2019/08/19 19:06 EDT    1.67   2.33    4  235    5  76.8  77.2 1014.3 -9.9 -9.999 -99.9 -99.99 -9.99
2019/08/19 19:12 EDT    1.58   2.24    4  222    4  76.6  77.5 1014.3 -9.9 -9.999 -99.9 -99.99 -9.99
2019/08/19 19:18 EDT    1.49   2.11    2  205    3  77.0  77.5 1014.3 -9.9 -9.999 -99.9 -99.99 -9.99
2019/08/19 19:24 EDT    1.40   1.92    4  196    5  76.3  77.7 1014.4 -9.9 -9.999 -99.9 -99.99 -9.99
2019/08/19 19:30 EDT    1.32   1.69    5  204    6  76.3  77.9 1014.5 -9.9 -9.999 -99.9 -99.99 -9.99
2019/08/19 19:36 EDT    1.24   1.47    7  215   10  76.5  78.1 1014.5 -9.9 -9.999 -99.9 -99.99 -9.99
2019/08/19 19:42 EDT    1.16   1.28    5  223    8  76.3  78.3 1014.4 -9.9 -9.999 -99.9 -99.99 -9.99
2019/08/19 19:48 EDT    1.09   1.16    4  241    6  76.3  78.4 1014.3 -9.9 -9.999 -99.9 -99.99 -9.99
2019/08/19 19:54 EDT    1.03   1.12    3  228    4  76.3  78.4 1014.4 -9.9 -9.999 -99.9 -99.99 -9.99
2019/08/19 20:00 EDT    0.97   1.12    3  240    4  76.1  78.4 1014.3 -9.9 -9.999 -99.9 -99.99 -9.99
2019/08/19 20:06 EDT    0.91   1.17    3  244    4  75.9  78.6 1014.3 -9.9 -9.999 -99.9 -99.99 -9.99
2019/08/19 20:12 EDT    0.86   1.25    3  259    4  75.9  78.6 1014.4 -9.9 -9.999 -99.9 -99.99 -9.99
2019/08/19 20:18 EDT    0.82   1.29    2  263    3  75.9  78.8 1014.3 -9.9 -9.999 -99.9 -99.99 -9.99
2019/08/19 20:24 EDT    0.78   1.24    1  293    3  75.7  78.8 1014.4 -9.9 -9.999 -99.9 -99.99 -9.99
2019/08/19 20:30 EDT    0.75   1.20    1  297    2  75.7  78.8 1014.4 -9.9 -9.999 -99.9 -99.99 -9.99
2019/08/19 20:36 EDT    0.73   1.15    1  302    2  75.7  78.8 1014.5 -9.9 -9.999 -99.9 -99.99 -9.99
2019/08/19 20:42 EDT    0.72   1.08    0  272    1  75.7  78.8 1014.5 -9.9 -9.999 -99.9 -99.99 -9.99
2019/08/19 20:48 EDT    0.71   0.97    0  276    0  75.7  78.8 1014.6 -9.9 -9.999 -99.9 -99.99 -9.99
2019/08/19 20:54 EDT    0.72   0.88    0  276    0  75.4  78.6 1014.6 -9.9 -9.999 -99.9 -99.99 -9.99
2019/08/19 21:00 EDT    0.73   0.96    1  228    2  75.4  78.6 1014.6 -9.9 -9.999 -99.9 -99.99 -9.99
2019/08/19 21:06 EDT    0.75   1.14    2  260    3  75.6  78.6 1014.7 -9.9 -9.999 -99.9 -99.99 -9.99
2019/08/19 21:12 EDT    0.78   1.33    2  251    2  75.6  78.6 1014.9 -9.9 -9.999 -99.9 -99.99 -9.99
2019/08/19 21:18 EDT    0.81   1.40    3  270    3  75.7  78.4 1014.9 -9.9 -9.999 -99.9 -99.99 -9.99
2019/08/19 21:24 EDT    0.86   1.33    3  304    4  75.7  78.6 1014.9 -9.9 -9.999 -99.9 -99.99 -9.99
2019/08/19 21:30 EDT    0.92   1.20    3  304    4  75.7  78.3 1014.9 -9.9 -9.999 -99.9 -99.99 -9.99
2019/08/19 21:36 EDT    0.98   1.08    3  321    4  75.6  78.1 1014.9 -9.9 -9.999 -99.9 -99.99 -9.99
2019/08/19 21:42 EDT    1.05   1.02    4  345    4  75.6  78.3 1014.9 -9.9 -9.999 -99.9 -99.99 -9.99
2019/08/19 21:48 EDT    1.13   1.09    5  358    5  75.2  78.3 1014.8 -9.9 -9.999 -99.9 -99.99 -9.99
2019/08/19 21:54 EDT    1.22   1.29    5  349    5  75.4  78.1 1014.8 -9.9 -9.999 -99.9 -99.99 -9.99
2019/08/19 22:00 EDT    1.31   1.55    5  354    6  75.6  77.9 1014.8 -9.9 -9.999 -99.9 -99.99 -9.99
2019/08/19 22:06 EDT    1.42   1.79    5  344    7  75.4  77.9 1014.8 -9.9 -9.999 -99.9 -99.99 -9.99
2019/08/19 22:12 EDT    1.52   1.92    4  332    6  75.9  77.9 1014.9 -9.9 -9.999 -99.9 -99.99 -9.99
2019/08/19 22:18 EDT    1.64   1.99    4  329    5  75.9  77.9 1014.9 -9.9 -9.999 -99.9 -99.99 -9.99
2019/08/19 22:24 EDT    1.76   2.08    4  330    7  75.6  77.9 1014.9 -9.9 -9.999 -99.9 -99.99 -9.99
2019/08/19 22:30 EDT    1.88   2.18    4  328    6  75.4  77.7 1014.9 -9.9 -9.999 -99.9 -99.99 -9.99
2019/08/19 22:36 EDT    2.01   2.27    2  332    5  75.6  77.7 1014.9 -9.9 -9.999 -99.9 -99.99 -9.99
2019/08/19 22:42 EDT    2.14   2.39    3  324    5  75.6  77.7 1015.0 -9.9 -9.999 -99.9 -99.99 -9.99
2019/08/19 22:48 EDT    2.28   2.48    4  341    5  75.7  77.7 1014.9 -9.9 -9.999 -99.9 -99.99 -9.99
2019/08/19 22:54 EDT    2.41   2.54    4  347    6  75.7  77.7 1014.9 -9.9 -9.999 -99.9 -99.99 -9.99
2019/08/19 23:00 EDT    2.55   2.62    4   15    7  76.1  77.7 1014.9 -9.9 -9.999 -99.9 -99.99 -9.99
2019/08/19 23:06 EDT    2.69   2.72    2   35    4  75.9  77.7 1014.9 -9.9 -9.999 -99.9 -99.99 -9.99
2019/08/19 23:12 EDT    2.83   2.84    2  356    4  76.1  77.7 1014.9 -9.9 -9.999 -99.9 -99.99 -9.99
2019/08/19 23:18 EDT    2.97   2.96    5  358    6  76.1  77.7 1015.0 -9.9 -9.999 -99.9 -99.99 -9.99
2019/08/19 23:24 EDT    3.11   3.11    6  350    7  75.9  77.7 1015.0 -9.9 -9.999 -99.9 -99.99 -9.99
2019/08/19 23:30 EDT    3.25   3.30    5  335    7  75.9  77.7 1015.0 -9.9 -9.999 -99.9 -99.99 -9.99
2019/08/19 23:36 EDT    3.39   3.46    4  335    6  75.9  77.7 1015.0 -9.9 -9.999 -99.9 -99.99 -9.99
2019/08/19 23:42 EDT    3.52   3.60    5  342    6  75.9  77.7 1015.0 -9.9 -9.999 -99.9 -99.99 -9.99
2019/08/19 23:48 EDT    3.66   3.75    5  335    7  75.9  77.9 1015.0 -9.9 -9.999 -99.9 -99.99 -9.99
2019/08/19 23:54 EDT    3.79   3.90    5  337    6  75.7  77.7 1015.1 -9.9 -9.999 -99.9 -99.99 -9.99
2019/08/20 00:00 EDT    3.91   4.08    5  336    7  75.7  77.7 1015.1 -9.9 -9.999 -99.9 -99.99 -9.99
2019/08/20 00:06 EDT    4.04   4.23    4  341    6  75.7  77.7 1015.0 -9.9 -9.999 -99.9 -99.99 -9.99
2019/08/20 00:12 EDT    4.16   4.38    5  346    6  75.7  77.7 1015.1 -9.9 -9.999 -99.9 -99.99 -9.99
2019/08/20 00:18 EDT    4.28   4.47    5  337    6  75.7  77.7 1015.1 -9.9 -9.999 -99.9 -99.99 -9.99
2019/08/20 00:24 EDT    4.40   4.52    5  345    7  75.9  77.7 1015.1 -9.9 -9.999 -99.9 -99.99 -9.99
2019/08/20 00:30 EDT    4.51   4.58    5  341    6  76.1  77.7 1015.1 -9.9 -9.999 -99.9 -99.99 -9.99
2019/08/20 00:36 EDT    4.62   4.67    4  339    6  75.7  77.5 1015.2 -9.9 -9.999 -99.9 -99.99 -9.99
2019/08/20 00:42 EDT    4.73   4.80    4  338    6  75.7  77.5 1015.2 -9.9 -9.999 -99.9 -99.99 -9.99
2019/08/20 00:48 EDT    4.84   4.94    5  339    5  75.6  77.5 1015.2 -9.9 -9.999 -99.9 -99.99 -9.99
2019/08/20 00:54 EDT    4.94   5.04    4  358    5  75.6  77.5 1015.2 -9.9 -9.999 -99.9 -99.99 -9.99
2019/08/20 01:00 EDT    5.04   5.14    5  336    6  75.7  77.5 1015.2 -9.9 -9.999 -99.9 -99.99 -9.99
2019/08/20 01:06 EDT    5.13   5.27    4  356    7  76.1  77.5 1015.2 -9.9 -9.999 -99.9 -99.99 -9.99
2019/08/20 01:12 EDT    5.23   5.42    4  347    6  75.9  77.4 1015.2 -9.9 -9.999 -99.9 -99.99 -9.99
2019/08/20 01:18 EDT    5.32   5.59    4  357    7  75.9  77.4 1015.2 -9.9 -9.999 -99.9 -99.99 -9.99
2019/08/20 01:24 EDT    5.40   5.71    4    2    5  75.9  77.2 1015.1 -9.9 -9.999 -99.9 -99.99 -9.99
2019/08/20 01:30 EDT    5.48   5.81    6    5    6  75.7  77.2 1015.1 -9.9 -9.999 -99.9 -99.99 -9.99
2019/08/20 01:36 EDT    5.56   5.86    6    7    8  75.9  77.2 1015.2 -9.9 -9.999 -99.9 -99.99 -9.99
2019/08/20 01:42 EDT    5.64   5.90    5   17    8  75.6  77.0 1015.3 -9.9 -9.999 -99.9 -99.99 -9.99
2019/08/20 01:48 EDT    5.71   5.92    4   35    6  75.2  77.0 1015.3 -9.9 -9.999 -99.9 -99.99 -9.99
2019/08/20 01:54 EDT    5.77   5.97    4   46    6  75.2  77.0 1015.4 -9.9 -9.999 -99.9 -99.99 -9.99
2019/08/20 02:00 EDT    5.84   6.04    4   43    4  75.2  77.0 1015.4 -9.9 -9.999 -99.9 -99.99 -9.99
2019/08/20 02:06 EDT    5.89   6.11    5   32    6  75.4  76.8 1015.5 -9.9 -9.999 -99.9 -99.99 -9.99
2019/08/20 02:12 EDT    5.94   6.20    8   38    8  74.8  76.8 1015.4 -9.9 -9.999 -99.9 -99.99 -9.99
2019/08/20 02:18 EDT    5.99   6.32    8   37    9  74.5  76.8 1015.3 -9.9 -9.999 -99.9 -99.99 -9.99
2019/08/20 02:24 EDT    6.03   6.43    7   34   10  74.5  76.8 1015.4 -9.9 -9.999 -99.9 -99.99 -9.99
2019/08/20 02:30 EDT    6.06   6.51    6   51    8  73.4  76.8 1015.5 -9.9 -9.999 -99.9 -99.99 -9.99
2019/08/20 02:36 EDT    6.09   6.53    7   39    8  73.6  76.8 1015.6 -9.9 -9.999 -99.9 -99.99 -9.99
2019/08/20 02:42 EDT    6.11   6.52    6   40    8  73.4  76.8 1015.6 -9.9 -9.999 -99.9 -99.99 -9.99
2019/08/20 02:48 EDT    6.12   6.50    7   24    8  73.4  76.8 1015.6 -9.9 -9.999 -99.9 -99.99 -9.99
2019/08/20 02:54 EDT    6.13   6.48    7   27    9  73.6  76.8 1015.7 -9.9 -9.999 -99.9 -99.99 -9.99
2019/08/20 03:00 EDT    6.12   6.48    6   26    8  73.6  76.8 1015.8 -9.9 -9.999 -99.9 -99.99 -9.99
2019/08/20 03:06 EDT    6.11   6.48    7   30    8  73.4  76.8 1015.8 -9.9 -9.999 -99.9 -99.99 -9.99
2019/08/20 03:12 EDT    6.09   6.50    7   32    8  73.4  76.8 1015.9 -9.9 -9.999 -99.9 -99.99 -9.99
2019/08/20 03:18 EDT    6.06   6.51    6   32    7  73.6  76.6 1016.1 -9.9 -9.999 -99.9 -99.99 -9.99
2019/08/20 03:24 EDT    6.03   6.47    5   32    6  73.6  76.6 1016.1 -9.9 -9.999 -99.9 -99.99 -9.99
2019/08/20 03:30 EDT    5.98   6.41    5   32    7  73.4  76.6 1016.1 -9.9 -9.999 -99.9 -99.99 -9.99
2019/08/20 03:36 EDT    5.93   6.34    5   32    6  73.4  76.6 1016.1 -9.9 -9.999 -99.9 -99.99 -9.99
2019/08/20 03:42 EDT    5.86   6.26    5   31    6  73.8  76.6 1016.1 -9.9 -9.999 -99.9 -99.99 -9.99
2019/08/20 03:48 EDT    5.79   6.19    5   33    6  74.1  76.6 1016.1 -9.9 -9.999 -99.9 -99.99 -9.99
2019/08/20 03:54 EDT    5.71   6.10    5   34    6  74.1  76.6 1016.1 -9.9 -9.999 -99.9 -99.99 -9.99
2019/08/20 04:00 EDT    5.62   6.02    5   36    6  73.9  76.6 1016.2 -9.9 -9.999 -99.9 -99.99 -9.99
2019/08/20 04:06 EDT    5.53   5.95    3   52    6  73.6  76.6 1016.3 -9.9 -9.999 -99.9 -99.99 -9.99
2019/08/20 04:12 EDT    5.43   5.88    4   49    4  73.6  76.6 1016.4 -9.9 -9.999 -99.9 -99.99 -9.99
2019/08/20 04:18 EDT    5.32   5.78    3   45    4  73.4  76.6 1016.5 -9.9 -9.999 -99.9 -99.99 -9.99
2019/08/20 04:24 EDT    5.20   5.65    2   36    4  73.2  76.6 1016.6 -9.9 -9.999 -99.9 -99.99 -9.99
2019/08/20 04:30 EDT    5.08   5.51    3   43    4  73.2  76.6 1016.6 -9.9 -9.999 -99.9 -99.99 -9.99
2019/08/20 04:36 EDT    4.96   5.36    5   28    7  73.8  76.6 1016.6 -9.9 -9.999 -99.9 -99.99 -9.99
2019/08/20 04:42 EDT    4.82   5.22    4   49    6  73.4  76.6 1016.7 -9.9 -9.999 -99.9 -99.99 -9.99
2019/08/20 04:48 EDT    4.69   5.10    3   56    4  73.0  76.6 1016.8 -9.9 -9.999 -99.9 -99.99 -9.99
2019/08/20 04:54 EDT    4.55   4.98    3   34    4  72.9  76.6 1016.9 -9.9 -9.999 -99.9 -99.99 -9.99
2019/08/20 05:00 EDT    4.41   4.86    2   31    4  72.7  76.6 1017.0 -9.9 -9.999 -99.9 -99.99 -9.99
2019/08/20 05:06 EDT    4.27   4.73    2   57    3  72.7  76.6 1017.1 -9.9 -9.999 -99.9 -99.99 -9.99
2019/08/20 05:12 EDT    4.13   4.61    3   49    4  72.9  76.6 1017.1 -9.9 -9.999 -99.9 -99.99 -9.99
2019/08/20 05:18 EDT    3.99   4.48    3   49    4  72.7  76.6 1017.2 -9.9 -9.999 -99.9 -99.99 -9.99
2019/08/20 05:24 EDT    3.84   4.34    2   56    3  72.9  76.6 1017.3 -9.9 -9.999 -99.9 -99.99 -9.99
2019/08/20 05:30 EDT    3.70   4.20    3   20    3  73.0  76.6 1017.4 -9.9 -9.999 -99.9 -99.99 -9.99
2019/08/20 05:36 EDT    3.56   4.06    4   18    5  73.4  76.6 1017.4 -9.9 -9.999 -99.9 -99.99 -9.99
2019/08/20 05:42 EDT    3.41   3.91    4   21    5  73.6  76.6 1017.6 -9.9 -9.999 -99.9 -99.99 -9.99
2019/08/20 05:48 EDT    3.28   3.78    5   20    5  73.6  76.6 1017.6 -9.9 -9.999 -99.9 -99.99 -9.99
2019/08/20 05:54 EDT    3.14   3.63    5   26    6  73.6  76.6 1017.7 -9.9 -9.999 -99.9 -99.99 -9.99
2019/08/20 06:00 EDT    3.00   3.49    6   27    7  73.4  76.6 1017.7 -9.9 -9.999 -99.9 -99.99 -9.99
2019/08/20 06:06 EDT    2.87   3.35    6   28    7  73.4  76.6 1017.8 -9.9 -9.999 -99.9 -99.99 -9.99
2019/08/20 06:12 EDT    2.74   3.22    5   23    7  73.4  76.6 1017.9 -9.9 -9.999 -99.9 -99.99 -9.99
2019/08/20 06:18 EDT    2.62   3.10    6   16    7  73.2  76.6 1018.0 -9.9 -9.999 -99.9 -99.99 -9.99
2019/08/20 06:24 EDT    2.49   2.98    5   24    7  73.4  76.6 1018.1 -9.9 -9.999 -99.9 -99.99 -9.99
2019/08/20 06:30 EDT    2.37   2.86    5   25    7  73.4  76.6 1018.2 -9.9 -9.999 -99.9 -99.99 -9.99
2019/08/20 06:36 EDT    2.26   2.75    5   21    6  73.4  76.8 1018.3 -9.9 -9.999 -99.9 -99.99 -9.99
2019/08/20 06:42 EDT    2.15   2.62    6   22    7  73.2  76.8 1018.2 -9.9 -9.999 -99.9 -99.99 -9.99
2019/08/20 06:48 EDT    2.04   2.48    6   22    7  73.4  76.8 1018.2 -9.9 -9.999 -99.9 -99.99 -9.99
2019/08/20 06:54 EDT    1.93   2.34    6   19    7  73.4  76.6 1018.2 -9.9 -9.999 -99.9 -99.99 -9.99
2019/08/20 07:00 EDT    1.83   2.20    6   23    9  73.4  76.6 1018.3 -9.9 -9.999 -99.9 -99.99 -9.99
2019/08/20 07:06 EDT    1.73   2.07    6   20    7  73.4  76.6 1018.4 -9.9 -9.999 -99.9 -99.99 -9.99
2019/08/20 07:12 EDT    1.64   1.96    6   17    8  73.4  76.6 1018.5 -9.9 -9.999 -99.9 -99.99 -9.99
2019/08/20 07:18 EDT    1.55   1.88    6   20    7  73.8  76.6 1018.6 -9.9 -9.999 -99.9 -99.99 -9.99
2019/08/20 07:24 EDT    1.46   1.80    6   28    7  73.9  76.6 1018.6 -9.9 -9.999 -99.9 -99.99 -9.99
2019/08/20 07:30 EDT    1.37   1.72    5   31    7  74.1  76.6 1018.6 -9.9 -9.999 -99.9 -99.99 -9.99
2019/08/20 07:36 EDT    1.29   1.64    6   20    7  74.1  76.8 1018.7 -9.9 -9.999 -99.9 -99.99 -9.99
2019/08/20 07:42 EDT    1.22   1.55    6   18    8  74.3  76.8 1018.7 -9.9 -9.999 -99.9 -99.99 -9.99
2019/08/20 07:48 EDT    1.14   1.47    6   17    8  74.5  76.8 1018.8 -9.9 -9.999 -99.9 -99.99 -9.99
2019/08/20 07:54 EDT    1.07   1.37    6   21    8  74.8  76.8 1018.8 -9.9 -9.999 -99.9 -99.99 -9.99
2019/08/20 08:00 EDT    1.01   1.28    6   29    8  75.0  76.8 1018.8 -9.9 -9.999 -99.9 -99.99 -9.99
2019/08/20 08:06 EDT    0.95   1.20    6   31    8  75.4  76.8 1018.9 -9.9 -9.999 -99.9 -99.99 -9.99
2019/08/20 08:12 EDT    0.89   1.12    7   28    8  75.7  76.8 1018.8 -9.9 -9.999 -99.9 -99.99 -9.99
2019/08/20 08:18 EDT    0.85   1.04    8   29    9  75.9  76.8 1018.8 -9.9 -9.999 -99.9 -99.99 -9.99
2019/08/20 08:24 EDT    0.80   0.97    8   27   10  76.1  76.8 1018.8 -9.9 -9.999 -99.9 -99.99 -9.99
2019/08/20 08:30 EDT    0.76   0.91    8   27   12  76.5  76.8 1018.7 -9.9 -9.999 -99.9 -99.99 -9.99
2019/08/20 08:36 EDT    0.73   0.85   10   29   12  76.6  76.8 1018.6 -9.9 -9.999 -99.9 -99.99 -9.99
2019/08/20 08:42 EDT    0.70   0.79   11   23   13  76.8  76.8 1018.6 -9.9 -9.999 -99.9 -99.99 -9.99
2019/08/20 08:48 EDT    0.69   0.72   11   28   13  77.2  76.8 1018.6 -9.9 -9.999 -99.9 -99.99 -9.99
2019/08/20 08:54 EDT    0.67   0.68   11   31   13  77.4  76.8 1018.6 -9.9 -9.999 -99.9 -99.99 -9.99
2019/08/20 09:00 EDT    0.67   0.66    9   26   11  77.5  76.6 1018.7 -9.9 -9.999 -99.9 -99.99 -9.99
2019/08/20 09:06 EDT    0.67   0.69   10   27   12  77.9  76.6 1018.6 -9.9 -9.999 -99.9 -99.99 -9.99
2019/08/20 09:12 EDT    0.68   0.71   11   21   13  78.1  76.6 1018.6 -9.9 -9.999 -99.9 -99.99 -9.99
2019/08/20 09:18 EDT    0.70   0.74   10   27   14  78.4  76.8 1018.6 -9.9 -9.999 -99.9 -99.99 -9.99
2019/08/20 09:24 EDT    0.73   0.78   12   20   14  78.4  76.8 1018.5 -9.9 -9.999 -99.9 -99.99 -9.99
2019/08/20 09:30 EDT    0.77   0.84   11   29   14  78.6  76.8 1018.5 -9.9 -9.999 -99.9 -99.99 -9.99
2019/08/20 09:36 EDT    0.81   0.92   11   15   13  78.8  76.8 1018.6 -9.9 -9.999 -99.9 -99.99 -9.99
2019/08/20 09:42 EDT    0.87   0.98   12   13   16  79.0  77.0 1018.6 -9.9 -9.999 -99.9 -99.99 -9.99
2019/08/20 09:48 EDT    0.93   1.04   11   13   14  79.2  77.0 1018.6 -9.9 -9.999 -99.9 -99.99 -9.99
2019/08/20 09:54 EDT    1.00   1.10   11   13   12  79.2  77.0 1018.6 -9.9 -9.999 -99.9 -99.99 -9.99
2019/08/20 10:00 EDT    1.08   1.17   10   20   12  79.3  77.0 1018.7 -9.9 -9.999 -99.9 -99.99 -9.99
2019/08/20 10:06 EDT    1.17   1.26    9   24   12  79.7  77.0 1018.7 -9.9 -9.999 -99.9 -99.99 -9.99
2019/08/20 10:12 EDT    1.26   1.35   10   15   11  79.3  77.0 1018.7 -9.9 -9.999 -99.9 -99.99 -9.99
2019/08/20 10:18 EDT    1.37   1.44   10    7   12  79.5  77.0 1018.7 -9.9 -9.999 -99.9 -99.99 -9.99
2019/08/20 10:24 EDT    1.48   1.57   10   19   12  79.5  77.0 1018.8 -9.9 -9.999 -99.9 -99.99 -9.99
2019/08/20 10:30 EDT    1.59   1.73   11   11   13  79.7  77.0 1018.8 -9.9 -9.999 -99.9 -99.99 -9.99
2019/08/20 10:36 EDT    1.72   1.89    8   16   11  79.9  77.0 1018.8 -9.9 -9.999 -99.9 -99.99 -9.99
2019/08/20 10:42 EDT    1.84   2.03    9   20   12  80.1  77.2 1018.8 -9.9 -9.999 -99.9 -99.99 -9.99
2019/08/20 10:48 EDT    1.98   2.18    8   21   12  80.1  77.2 1018.7 -9.9 -9.999 -99.9 -99.99 -9.99
2019/08/20 10:54 EDT    2.11   2.30    5   33   11  80.4  77.4 1018.7 -9.9 -9.999 -99.9 -99.99 -9.99
2019/08/20 11:00 EDT    2.25   2.40    9   24   11  80.2  77.4 1018.7 -9.9 -9.999 -99.9 -99.99 -9.99
2019/08/20 11:06 EDT    2.40   2.52    9   20   11  80.4  77.2 1018.6 -9.9 -9.999 -99.9 -99.99 -9.99
2019/08/20 11:12 EDT    2.54   2.64    6    9   11  80.6  77.2 1018.7 -9.9 -9.999 -99.9 -99.99 -9.99
2019/08/20 11:18 EDT    2.69   2.76    7   18   10  80.6  77.2 1018.6 -9.9 -9.999 -99.9 -99.99 -9.99
2019/08/20 11:24 EDT    2.84   2.90    6  355    8  80.8  77.2 1018.7 -9.9 -9.999 -99.9 -99.99 -9.99
2019/08/20 11:30 EDT    2.99   3.04    7  355    8  81.0  77.2 1018.6 -9.9 -9.999 -99.9 -99.99 -9.99
2019/08/20 11:36 EDT    3.14   3.19    3    9    8  81.1  77.4 1018.7 -9.9 -9.999 -99.9 -99.99 -9.99
2019/08/20 11:42 EDT    3.29   3.33    6   30    9  81.1  77.4 1018.7 -9.9 -9.999 -99.9 -99.99 -9.99
2019/08/20 11:48 EDT    3.43   3.46    2   43    7  81.7  77.4 1018.7 -9.9 -9.999 -99.9 -99.99 -9.99
2019/08/20 11:54 EDT    3.58   3.60    0   15    5  82.6  77.4 1018.6 -9.9 -9.999 -99.9 -99.99 -9.99
2019/08/20 12:00 EDT    3.72   3.74    0  281    1  83.3  77.4 1018.6 -9.9 -9.999 -99.9 -99.99 -9.99
2019/08/20 12:06 EDT    3.86   3.85    4   27    5  81.9  77.4 1018.5 -9.9 -9.999 -99.9 -99.99 -9.99
2019/08/20 12:12 EDT    4.00   3.99    4  292    5  81.1  77.4 1018.4 -9.9 -9.999 -99.9 -99.99 -9.99
2019/08/20 12:18 EDT    4.14   4.11    3  221    4  81.5  77.4 1018.4 -9.9 -9.999 -99.9 -99.99 -9.99
2019/08/20 12:24 EDT    4.27   4.22    4  213    4  82.0  77.4 1018.3 -9.9 -9.999 -99.9 -99.99 -9.99
2019/08/20 12:30 EDT    4.40   4.35    6  202    7  80.4  77.4 1018.3 -9.9 -9.999 -99.9 -99.99 -9.99
2019/08/20 12:36 EDT    4.52   4.49    7  198    9  79.7  77.4 1018.2 -9.9 -9.999 -99.9 -99.99 -9.99
2019/08/20 12:42 EDT    4.65   4.62    9  215   11  78.1  77.4 1018.3 -9.9 -9.999 -99.9 -99.99 -9.99
2019/08/20 12:48 EDT    4.76   4.76    9  203   10  78.6  77.4 1018.3 -9.9 -9.999 -99.9 -99.99 -9.99
2019/08/20 12:54 EDT    4.88   4.88   10  205   11  78.1  77.4 1018.3 -9.9 -9.999 -99.9 -99.99 -9.99
2019/08/20 13:00 EDT    4.99   5.01   11  205   12  77.9  77.4 1018.2 -9.9 -9.999 -99.9 -99.99 -9.99
2019/08/20 13:06 EDT    5.10   5.10   12  205   12  77.7  77.2 1018.1 -9.9 -9.999 -99.9 -99.99 -9.99
2019/08/20 13:12 EDT    5.20   5.21   10  208   12  77.7  77.2 1018.0 -9.9 -9.999 -99.9 -99.99 -9.99
2019/08/20 13:18 EDT    5.30   5.32   10  211   11  77.7  77.0 1017.9 -9.9 -9.999 -99.9 -99.99 -9.99
2019/08/20 13:24 EDT    5.40   5.44   10  210   10  77.9  76.8 1017.9 -9.9 -9.999 -99.9 -99.99 -9.99
2019/08/20 13:30 EDT    5.49   5.56    9  210   11  78.1  76.8 1017.9 -9.9 -9.999 -99.9 -99.99 -9.99
2019/08/20 13:36 EDT    5.58   5.67   10  214   10  77.9  76.6 1017.9 -9.9 -9.999 -99.9 -99.99 -9.99
2019/08/20 13:42 EDT    5.67   5.79    9  203   10  78.4  76.6 1017.8 -9.9 -9.999 -99.9 -99.99 -9.99
2019/08/20 13:48 EDT    5.75   5.91    9  207   10  78.4  76.8 1017.9 -9.9 -9.999 -99.9 -99.99 -9.99
2019/08/20 13:54 EDT    5.83   6.03   10  210   10  78.3  76.8 1017.9 -9.9 -9.999 -99.9 -99.99 -9.99
2019/08/20 14:00 EDT    5.90   6.11   11  219   12  78.1  76.8 1018.0 -9.9 -9.999 -99.9 -99.99 -9.99
2019/08/20 14:06 EDT    5.97   6.20   12  218   13  78.3  76.8 1018.0 -9.9 -9.999 -99.9 -99.99 -9.99
2019/08/20 14:12 EDT    6.04   6.28   11  221   13  78.1  76.8 1018.0 -9.9 -9.999 -99.9 -99.99 -9.99
2019/08/20 14:18 EDT    6.10   6.35   11  219   13  78.1  76.8 1018.0 -9.9 -9.999 -99.9 -99.99 -9.99
2019/08/20 14:24 EDT    6.16   6.41   11  219   12  78.3  76.8 1018.0 -9.9 -9.999 -99.9 -99.99 -9.99
2019/08/20 14:30 EDT    6.21   6.48   12  216   13  78.3  76.8 1017.9 -9.9 -9.999 -99.9 -99.99 -9.99
2019/08/20 14:36 EDT    6.26   6.55   11  220   12  78.3  76.8 1018.0 -9.9 -9.999 -99.9 -99.99 -9.99
2019/08/20 14:42 EDT    6.30   6.61   10  213   12  78.4  76.8 1018.1 -9.9 -9.999 -99.9 -99.99 -9.99
2019/08/20 14:48 EDT    6.33   6.67   10  213   12  78.6  76.8 1018.0 -9.9 -9.999 -99.9 -99.99 -9.99
2019/08/20 14:54 EDT    6.36   6.74   10  217   12  78.4  76.8 1018.0 -9.9 -9.999 -99.9 -99.99 -9.99
2019/08/20 15:00 EDT    6.38   6.77   10  214   12  78.8  76.8 1018.1 -9.9 -9.999 -99.9 -99.99 -9.99
2019/08/20 15:06 EDT    6.40   6.78   11  209   12  79.0  76.8 1018.0 -9.9 -9.999 -99.9 -99.99 -9.99
2019/08/20 15:12 EDT    6.41   6.80   10  206   11  79.2  76.8 1018.0 -9.9 -9.999 -99.9 -99.99 -9.99
2019/08/20 15:18 EDT    6.41   6.79   11  207   11  79.2  77.0 1017.9 -9.9 -9.999 -99.9 -99.99 -9.99
2019/08/20 15:24 EDT    6.40   6.76    9  195   11  79.5  77.0 1017.8 -9.9 -9.999 -99.9 -99.99 -9.99
2019/08/20 15:30 EDT    6.38   6.74    9  195   10  79.5  77.2 1017.8 -9.9 -9.999 -99.9 -99.99 -9.99
2019/08/20 15:36 EDT    6.36   6.71   11  209   11  79.2  77.0 1017.8 -9.9 -9.999 -99.9 -99.99 -9.99
2019/08/20 15:42 EDT    6.33   6.66   11  216   12  79.2  77.0 1017.7 -9.9 -9.999 -99.9 -99.99 -9.99
2019/08/20 15:48 EDT    6.29   6.61   10  210   12  79.0  77.2 1017.7 -9.9 -9.999 -99.9 -99.99 -9.99
2019/08/20 15:54 EDT    6.24   6.56    9  209   11  79.3  77.2 1017.6 -9.9 -9.999 -99.9 -99.99 -9.99
2019/08/20 16:00 EDT    6.18   6.50    9  211   11  79.5  77.2 1017.5 -9.9 -9.999 -99.9 -99.99 -9.99
2019/08/20 16:06 EDT    6.12   6.40    9  206   11  80.1  77.0 1017.4 -9.9 -9.999 -99.9 -99.99 -9.99
2019/08/20 16:12 EDT    6.04   6.29    7  195    9  80.2  76.8 1017.4 -9.9 -9.999 -99.9 -99.99 -9.99
2019/08/20 16:18 EDT    5.96   6.18    7  202    8  80.6  76.6 1017.4 -9.9 -9.999 -99.9 -99.99 -9.99
2019/08/20 16:24 EDT    5.87   6.09    7  198    8  80.8  76.6 1017.4 -9.9 -9.999 -99.9 -99.99 -9.99
2019/08/20 16:30 EDT    5.78   5.99    6  195    8  80.6  76.6 1017.3 -9.9 -9.999 -99.9 -99.99 -9.99
2019/08/20 16:36 EDT    5.67   5.88    6  201    7  81.0  76.5 1017.2 -9.9 -9.999 -99.9 -99.99 -9.99
2019/08/20 16:42 EDT    5.56   5.77    6  205    7  81.0  76.5 1017.2 -9.9 -9.999 -99.9 -99.99 -9.99
2019/08/20 16:48 EDT    5.45   5.66    7  210    7  80.6  76.5 1017.2 -9.9 -9.999 -99.9 -99.99 -9.99
2019/08/20 16:54 EDT    5.32   5.55    6  208    7  81.0  76.5 1017.2 -9.9 -9.999 -99.9 -99.99 -9.99
2019/08/20 17:00 EDT    5.20   5.43    6  204    7  81.1  76.5 1017.2 -9.9 -9.999 -99.9 -99.99 -9.99
2019/08/20 17:06 EDT    5.07   5.31    6  201    7  81.3  76.5 1017.3 -9.9 -9.999 -99.9 -99.99 -9.99
2019/08/20 17:12 EDT    4.93   5.17    6  203    6  81.3  76.5 1017.2 -9.9 -9.999 -99.9 -99.99 -9.99
2019/08/20 17:18 EDT    4.80   5.04    6  199    6  81.5  76.5 1017.2 -9.9 -9.999 -99.9 -99.99 -9.99
2019/08/20 17:24 EDT    4.66   4.90    6  191    7  81.1  76.5 1017.2 -9.9 -9.999 -99.9 -99.99 -9.99
2019/08/20 17:30 EDT    4.51   4.75    7  212    9  80.8  76.6 1017.2 -9.9 -9.999 -99.9 -99.99 -9.99
2019/08/20 17:36 EDT    4.37   4.62    7  216    8  81.5  76.6 1017.3 -9.9 -9.999 -99.9 -99.99 -9.99
2019/08/20 17:42 EDT    4.23   4.49    7  209    8  81.5  76.8 1017.3 -9.9 -9.999 -99.9 -99.99 -9.99
2019/08/20 17:48 EDT    4.08   4.36    6  208    7  81.7  76.8 1017.2 -9.9 -9.999 -99.9 -99.99 -9.99
2019/08/20 17:54 EDT    3.94   4.24    6  207    7  81.5  77.0 1017.2 -9.9 -9.999 -99.9 -99.99 -9.99
2019/08/20 18:00 EDT    3.80   4.10    7  203    7  81.5  77.0 1017.3 -9.9 -9.999 -99.9 -99.99 -9.99
2019/08/20 18:06 EDT    3.66   3.97    6  213    7  80.6  77.2 1017.3 -9.9 -9.999 -99.9 -99.99 -9.99
2019/08/20 18:12 EDT    3.52   3.83    7  211    8  80.8  77.4 1017.2 -9.9 -9.999 -99.9 -99.99 -9.99
2019/08/20 18:18 EDT    3.38   3.70    6  207    8  81.1  77.5 1017.1 -9.9 -9.999 -99.9 -99.99 -9.99
2019/08/20 18:24 EDT    3.25   3.55    6  209    7  81.0  77.7 1016.9 -9.9 -9.999 -99.9 -99.99 -9.99
2019/08/20 18:30 EDT    3.12   3.41    5  208    7  81.0  77.9 1016.9 -9.9 -9.999 -99.9 -99.99 -9.99
2019/08/20 18:36 EDT    2.99   3.29    4  198    5  81.7  78.1 1016.6 -9.9 -9.999 -99.9 -99.99 -9.99
2019/08/20 18:42 EDT    2.86   3.17    4  202    5  81.5  78.3 1016.7 -9.9 -9.999 -99.9 -99.99 -9.99
2019/08/20 18:48 EDT    2.74   3.05    4  204    4  81.5  78.3 1016.5 -9.9 -9.999 -99.9 -99.99 -9.99
2019/08/20 18:54 EDT    2.62   2.95    3  205    4  81.5  78.3 1016.4 -9.9 -9.999 -99.9 -99.99 -9.99
2019/08/20 19:00 EDT    2.50   2.83    4  206    4  81.0  78.3 1016.5 -9.9 -9.999 -99.9 -99.99 -9.99
2019/08/20 19:06 EDT    2.39   2.72    4  199    5  80.6  78.1 1016.4 -9.9 -9.999 -99.9 -99.99 -9.99
2019/08/20 19:12 EDT    2.28   2.63    4  195    4  80.4  78.3 1016.5 -9.9 -9.999 -99.9 -99.99 -9.99
2019/08/20 19:18 EDT    2.17   2.52    4  190    5  79.7  78.3 1016.3 -9.9 -9.999 -99.9 -99.99 -9.99
2019/08/20 19:24 EDT    2.07   2.41    4  191    5  79.5  78.4 1016.4 -9.9 -9.999 -99.9 -99.99 -9.99
2019/08/20 19:30 EDT    1.97   2.30    4  190    4  79.5  78.6 1016.4 -9.9 -9.999 -99.9 -99.99 -9.99
2019/08/20 19:36 EDT    1.87   2.19    4  191    4  79.3  78.8 1016.3 -9.9 -9.999 -99.9 -99.99 -9.99
2019/08/20 19:42 EDT    1.78   2.09    4  194    4  79.2  79.2 1016.3 -9.9 -9.999 -99.9 -99.99 -9.99
2019/08/20 19:48 EDT    1.69   1.99    3  183    4  78.8  79.2 1016.3 -9.9 -9.999 -99.9 -99.99 -9.99
2019/08/20 19:54 EDT    1.60   1.90    4  178    4  78.8  79.2 1016.4 -9.9 -9.999 -99.9 -99.99 -9.99
2019/08/20 20:00 EDT    1.52   1.80    4  171    5  78.4  79.3 1016.4 -9.9 -9.999 -99.9 -99.99 -9.99
2019/08/20 20:06 EDT    1.44   1.72    4  162    5  78.4  79.3 1016.4 -9.9 -9.999 -99.9 -99.99 -9.99
2019/08/20 20:12 EDT    1.36   1.65    4  160    5  78.4  79.3 1016.4 -9.9 -9.999 -99.9 -99.99 -9.99
2019/08/20 20:18 EDT    1.29   1.57    4  163    5  78.4  79.3 1016.4 -9.9 -9.999 -99.9 -99.99 -9.99
2019/08/20 20:24 EDT    1.22   1.49    3  159    4  78.1  79.5 1016.3 -9.9 -9.999 -99.9 -99.99 -9.99
2019/08/20 20:30 EDT    1.15   1.41    4  169    4  78.3  79.5 1016.3 -9.9 -9.999 -99.9 -99.99 -9.99
2019/08/20 20:36 EDT    1.09   1.34    4  172    5  78.3  79.5 1016.4 -9.9 -9.999 -99.9 -99.99 -9.99
2019/08/20 20:42 EDT    1.04   1.27    2  157    4  77.9  79.5 1016.4 -9.9 -9.999 -99.9 -99.99 -9.99
2019/08/20 20:48 EDT    0.99   1.19    4  167    4  77.9  79.5 1016.5 -9.9 -9.999 -99.9 -99.99 -9.99
2019/08/20 20:54 EDT    0.94   1.14    4  179    5  77.9  79.5 1016.5 -9.9 -9.999 -99.9 -99.99 -9.99
2019/08/20 21:00 EDT    0.90   1.06    6  217    6  79.2  79.5 1016.7 -9.9 -9.999 -99.9 -99.99 -9.99
2019/08/20 21:06 EDT    0.87   1.00    6  223    7  79.2  79.3 1016.8 -9.9 -9.999 -99.9 -99.99 -9.99
2019/08/20 21:12 EDT    0.84   0.99    7  225    8  79.2  79.3 1016.9 -9.9 -9.999 -99.9 -99.99 -9.99
2019/08/20 21:18 EDT    0.82   0.97    7  228    9  79.2  79.2 1016.9 -9.9 -9.999 -99.9 -99.99 -9.99
2019/08/20 21:24 EDT    0.80   0.97    7  227    8  79.0  79.2 1016.9 -9.9 -9.999 -99.9 -99.99 -9.99
2019/08/20 21:30 EDT    0.80   0.97    7  225    8  79.0  79.0 1017.0 -9.9 -9.999 -99.9 -99.99 -9.99
2019/08/20 21:36 EDT    0.80   0.97    7  224    8  79.0  79.0 1016.9 -9.9 -9.999 -99.9 -99.99 -9.99
2019/08/20 21:42 EDT    0.81   0.99    6  227    8  78.8  79.2 1017.0 -9.9 -9.999 -99.9 -99.99 -9.99
2019/08/20 21:48 EDT    0.82   1.01    7  222    8  78.8  79.2 1017.0 -9.9 -9.999 -99.9 -99.99 -9.99
2019/08/20 21:54 EDT    0.85   1.03    6  234    8  78.6  79.0 1017.0 -9.9 -9.999 -99.9 -99.99 -9.99
2019/08/20 22:00 EDT    0.88   1.07    7  228    8  78.6  78.8 1017.0 -9.9 -9.999 -99.9 -99.99 -9.99
2019/08/20 22:06 EDT    0.92   1.13    6  230    7  78.6  78.8 1017.1 -9.9 -9.999 -99.9 -99.99 -9.99
2019/08/20 22:12 EDT    0.98   1.21    6  227    7  79.0  78.8 1017.0 -9.9 -9.999 -99.9 -99.99 -9.99
2019/08/20 22:18 EDT    1.03   1.28    5  238    8  79.0  78.8 1017.0 -9.9 -9.999 -99.9 -99.99 -9.99
2019/08/20 22:24 EDT    1.10   1.36    4  239    6  79.0  78.8 1017.1 -9.9 -9.999 -99.9 -99.99 -9.99
2019/08/20 22:30 EDT    1.17   1.45    4  230    6  78.8  78.8 1017.1 -9.9 -9.999 -99.9 -99.99 -9.99
2019/08/20 22:36 EDT    1.26   1.54    4  231    5  78.6  78.8 1017.1 -9.9 -9.999 -99.9 -99.99 -9.99
2019/08/20 22:42 EDT    1.35   1.64    4  223    6  78.4  78.8 1017.1 -9.9 -9.999 -99.9 -99.99 -9.99
2019/08/20 22:48 EDT    1.44   1.75    5  228    5  78.4  78.6 1017.1 -9.9 -9.999 -99.9 -99.99 -9.99
2019/08/20 22:54 EDT    1.55   1.85    4  215    5  78.3  78.6 1017.0 -9.9 -9.999 -99.9 -99.99 -9.99
2019/08/20 23:00 EDT    1.65   1.96    5  221    7  78.4  78.6 1017.0 -9.9 -9.999 -99.9 -99.99 -9.99
2019/08/20 23:06 EDT    1.77   2.08    4  229    5  78.3  78.6 1017.0 -9.9 -9.999 -99.9 -99.99 -9.99
2019/08/20 23:12 EDT    1.89   2.20    5  235    7  78.3  78.4 1017.0 -9.9 -9.999 -99.9 -99.99 -9.99
2019/08/20 23:18 EDT    2.01   2.31    5  225    6  78.3  78.4 1017.0 -9.9 -9.999 -99.9 -99.99 -9.99
2019/08/20 23:24 EDT    2.14   2.42    4  222    5  78.1  78.3 1016.9 -9.9 -9.999 -99.9 -99.99 -9.99
2019/08/20 23:30 EDT    2.27   2.54    4  216    7  78.1  78.3 1016.9 -9.9 -9.999 -99.9 -99.99 -9.99
2019/08/20 23:36 EDT    2.40   2.63    5  220    6  78.1  78.3 1016.9 -9.9 -9.999 -99.9 -99.99 -9.99
2019/08/20 23:42 EDT    2.54   2.76    5  226    6  77.9  78.3 1016.8 -9.9 -9.999 -99.9 -99.99 -9.99
2019/08/20 23:48 EDT    2.67   2.89    5  216    6  77.9  78.3 1016.8 -9.9 -9.999 -99.9 -99.99 -9.99
2019/08/20 23:54 EDT    2.81   3.04    4  239    5  77.7  78.3 1016.9 -9.9 -9.999 -99.9 -99.99 -9.99
2019/08/21 00:00 EDT    2.95   3.17    4  221    4  77.7  78.3 1016.8 -9.9 -9.999 -99.9 -99.99 -9.99
2019/08/21 00:06 EDT    3.08   3.31    4  209    5  77.7  78.3 1016.7 -9.9 -9.999 -99.9 -99.99 -9.99
2019/08/21 00:12 EDT    3.22   3.44    4  208    6  77.5  78.4 1016.9 -9.9 -9.999 -99.9 -99.99 -9.99
2019/08/21 00:18 EDT    3.35   3.58    5  205    6  77.5  78.4 1016.9 -9.9 -9.999 -99.9 -99.99 -9.99
2019/08/21 00:24 EDT    3.48   3.72    5  218    6  77.7  78.4 1016.8 -9.9 -9.999 -99.9 -99.99 -9.99
2019/08/21 00:30 EDT    3.61   3.84    5  221    6  77.7  78.6 1016.8 -9.9 -9.999 -99.9 -99.99 -9.99
2019/08/21 00:36 EDT    3.74   3.93    6  217    6  77.7  78.6 1016.7 -9.9 -9.999 -99.9 -99.99 -9.99
2019/08/21 00:42 EDT    3.86   4.04    6  221    7  77.5  78.4 1016.9 -9.9 -9.999 -99.9 -99.99 -9.99
2019/08/21 00:48 EDT    3.98   4.15    5  211    6  77.4  78.4 1016.8 -9.9 -9.999 -99.9 -99.99 -9.99
2019/08/21 00:54 EDT    4.10   4.26    6  194    7  76.8  78.4 1016.8 -9.9 -9.999 -99.9 -99.99 -9.99
2019/08/21 01:00 EDT    4.22   4.40    4  161    6  75.6  78.3 1016.9 -9.9 -9.999 -99.9 -99.99 -9.99
2019/08/21 01:06 EDT    4.33   4.55    3  197    5  76.1  78.3 1016.9 -9.9 -9.999 -99.9 -99.99 -9.99
2019/08/21 01:12 EDT    4.44   4.66    6  207    7  76.8  78.1 1017.0 -9.9 -9.999 -99.9 -99.99 -9.99
2019/08/21 01:18 EDT    4.54   4.78    4  162    7  75.6  78.1 1017.0 -9.9 -9.999 -99.9 -99.99 -9.99
2019/08/21 01:24 EDT    4.64   4.92    4  161    4  75.6  78.1 1016.9 -9.9 -9.999 -99.9 -99.99 -9.99
2019/08/21 01:30 EDT    4.74   5.03    4  170    4  75.2  78.1 1016.8 -9.9 -9.999 -99.9 -99.99 -9.99
2019/08/21 01:36 EDT    4.84   5.13    3  167    4  74.8  77.9 1016.7 -9.9 -9.999 -99.9 -99.99 -9.99
2019/08/21 01:42 EDT    4.93   5.21    4  166    4  74.7  77.9 1016.6 -9.9 -9.999 -99.9 -99.99 -9.99
2019/08/21 01:48 EDT    5.02   5.29    4  166    5  75.2  77.7 1016.5 -9.9 -9.999 -99.9 -99.99 -9.99
2019/08/21 01:54 EDT    5.10   5.37    3  140    4  74.7  77.7 1016.5 -9.9 -9.999 -99.9 -99.99 -9.99
2019/08/21 02:00 EDT    5.18   5.46    3  148    4  74.7  77.7 1016.5 -9.9 -9.999 -99.9 -99.99 -9.99
2019/08/21 02:06 EDT    5.26   5.55    4  146    4  74.7  77.7 1016.6 -9.9 -9.999 -99.9 -99.99 -9.99
2019/08/21 02:12 EDT    5.34   5.63    4  150    4  74.7  77.5 1016.6 -9.9 -9.999 -99.9 -99.99 -9.99
2019/08/21 02:18 EDT    5.41   5.73    3  154    4  74.5  77.5 1016.6 -9.9 -9.999 -99.9 -99.99 -9.99
2019/08/21 02:24 EDT    5.47   5.82    2  157    4  74.3  77.5 1016.5 -9.9 -9.999 -99.9 -99.99 -9.99
2019/08/21 02:30 EDT    5.54   5.90    3  146    4  74.1  77.5 1016.4 -9.9 -9.999 -99.9 -99.99 -9.99
2019/08/21 02:36 EDT    5.60   6.00    2  145    3  74.5  77.5 1016.4 -9.9 -9.999 -99.9 -99.99 -9.99
2019/08/21 02:42 EDT    5.65   6.06    3  156    4  74.5  77.5 1016.2 -9.9 -9.999 -99.9 -99.99 -9.99
2019/08/21 02:48 EDT    5.71   6.11    3  126    4  74.5  77.5 1016.0 -9.9 -9.999 -99.9 -99.99 -9.99
2019/08/21 02:54 EDT    5.75   6.17    3  145    4  74.1  77.5 1016.1 -9.9 -9.999 -99.9 -99.99 -9.99
2019/08/21 03:00 EDT    5.80   6.22    2  147    4  74.3  77.5 1016.0 -9.9 -9.999 -99.9 -99.99 -9.99
2019/08/21 03:06 EDT    5.83   6.27    4  155    4  74.1  77.5 1016.0 -9.9 -9.999 -99.9 -99.99 -9.99
2019/08/21 03:12 EDT    5.86   6.32    3  160    4  73.9  77.5 1016.0 -9.9 -9.999 -99.9 -99.99 -9.99
2019/08/21 03:18 EDT    5.89   6.36    3  150    4  73.9  77.4 1016.0 -9.9 -9.999 -99.9 -99.99 -9.99
2019/08/21 03:24 EDT    5.91   6.38    3  150    4  73.9  77.4 1015.8 -9.9 -9.999 -99.9 -99.99 -9.99
2019/08/21 03:30 EDT    5.92   6.38    3  150    5  74.1  77.4 1015.8 -9.9 -9.999 -99.9 -99.99 -9.99
2019/08/21 03:36 EDT    5.92   6.37    4  135    5  74.1  77.4 1015.7 -9.9 -9.999 -99.9 -99.99 -9.99
2019/08/21 03:42 EDT    5.92   6.36    4  150    5  73.9  77.2 1015.9 -9.9 -9.999 -99.9 -99.99 -9.99
2019/08/21 03:48 EDT    5.91   6.34    3  149    4  73.8  77.0 1015.9 -9.9 -9.999 -99.9 -99.99 -9.99
2019/08/21 03:54 EDT    5.90   6.30    3  146    4  73.8  77.0 1015.9 -9.9 -9.999 -99.9 -99.99 -9.99
2019/08/21 04:00 EDT    5.87   6.24    4  152    5  73.9  76.8 1015.8 -9.9 -9.999 -99.9 -99.99 -9.99
2019/08/21 04:06 EDT    5.84   6.17    4  149    5  73.9  76.8 1015.6 -9.9 -9.999 -99.9 -99.99 -9.99
2019/08/21 04:12 EDT    5.80   6.12    4  129    5  73.8  76.6 1015.5 -9.9 -9.999 -99.9 -99.99 -9.99
2019/08/21 04:18 EDT    5.75   6.08    3  136    4  73.9  76.6 1015.5 -9.9 -9.999 -99.9 -99.99 -9.99
2019/08/21 04:24 EDT    5.69   6.03    3  111    4  73.9  76.6 1015.5 -9.9 -9.999 -99.9 -99.99 -9.99
2019/08/21 04:30 EDT    5.63   5.97    3  132    4  73.6  76.5 1015.5 -9.9 -9.999 -99.9 -99.99 -9.99
2019/08/21 04:36 EDT    5.55   5.89    3  172    3  73.4  76.5 1015.7 -9.9 -9.999 -99.9 -99.99 -9.99
2019/08/21 04:42 EDT    5.47   5.81    2  165    4  73.4  76.5 1015.5 -9.9 -9.999 -99.9 -99.99 -9.99
2019/08/21 04:48 EDT    5.39   5.75    2  153    3  73.8  76.5 1015.5 -9.9 -9.999 -99.9 -99.99 -9.99
2019/08/21 04:54 EDT    5.29   5.65    3  131    4  73.9  76.5 1015.4 -9.9 -9.999 -99.9 -99.99 -9.99
2019/08/21 05:00 EDT    5.19   5.54    3  149    4  73.9  76.5 1015.4 -9.9 -9.999 -99.9 -99.99 -9.99
2019/08/21 05:06 EDT    5.08   5.41    3  141    4  74.1  76.3 1015.2 -9.9 -9.999 -99.9 -99.99 -9.99
2019/08/21 05:12 EDT    4.97   5.26    3  137    4  74.3  76.3 1015.1 -9.9 -9.999 -99.9 -99.99 -9.99
2019/08/21 05:18 EDT    4.85   5.12    4  138    5  74.3  76.3 1015.0 -9.9 -9.999 -99.9 -99.99 -9.99
2019/08/21 05:24 EDT    4.72   4.99    4  146    5  74.3  76.3 1015.0 -9.9 -9.999 -99.9 -99.99 -9.99
2019/08/21 05:30 EDT    4.60   4.87    3  130    4  74.5  76.3 1014.9 -9.9 -9.999 -99.9 -99.99 -9.99
2019/08/21 05:36 EDT    4.47   4.73    4  108    5  74.1  76.3 1014.7 -9.9 -9.999 -99.9 -99.99 -9.99
2019/08/21 05:42 EDT    4.33   4.62    4  126    5  74.3  76.3 1014.7 -9.9 -9.999 -99.9 -99.99 -9.99
2019/08/21 05:48 EDT    4.20   4.50    3  125    4  74.3  76.3 1014.7 -9.9 -9.999 -99.9 -99.99 -9.99
2019/08/21 05:54 EDT    4.06   4.38    3  133    4  74.1  76.3 1014.8 -9.9 -9.999 -99.9 -99.99 -9.99
2019/08/21 06:00 EDT    3.92   4.26    3  130    4  74.5  76.3 1014.9 -9.9 -9.999 -99.9 -99.99 -9.99
2019/08/21 06:06 EDT    3.78   4.14    3  134    3  74.7  76.3 1014.9 -9.9 -9.999 -99.9 -99.99 -9.99
2019/08/21 06:12 EDT    3.65   4.04    3  122    4  74.7  76.3 1014.8 -9.9 -9.999 -99.9 -99.99 -9.99
2019/08/21 06:18 EDT    3.51   3.94    3   99    4  74.7  76.3 1014.8 -9.9 -9.999 -99.9 -99.99 -9.99
2019/08/21 06:24 EDT    3.37   3.83    3  104    3  74.7  76.3 1014.7 -9.9 -9.999 -99.9 -99.99 -9.99
2019/08/21 06:30 EDT    3.24   3.70    2  103    4  74.8  76.3 1014.6 -9.9 -9.999 -99.9 -99.99 -9.99
2019/08/21 06:36 EDT    3.11   3.57    3   42    3  74.5  76.3 1014.7 -9.9 -9.999 -99.9 -99.99 -9.99
2019/08/21 06:42 EDT    2.98   3.45    3   14    3  74.3  76.3 1014.8 -9.9 -9.999 -99.9 -99.99 -9.99
2019/08/21 06:48 EDT    2.85   3.32    2   40    3  74.5  76.3 1014.9 -9.9 -9.999 -99.9 -99.99 -9.99
2019/08/21 06:54 EDT    2.73   3.19    4   21    4  74.1  76.3 1014.9 -9.9 -9.999 -99.9 -99.99 -9.99
2019/08/21 07:00 EDT    2.61   3.04    3   52    4  74.3  76.3 1015.0 -9.9 -9.999 -99.9 -99.99 -9.99
2019/08/21 07:06 EDT    2.49   2.91    3   72    4  74.7  76.3 1015.0 -9.9 -9.999 -99.9 -99.99 -9.99
2019/08/21 07:12 EDT    2.38   2.79    2  128    3  74.7  76.5 1015.0 -9.9 -9.999 -99.9 -99.99 -9.99
2019/08/21 07:18 EDT    2.27   2.67    3  111    4  74.5  76.5 1015.0 -9.9 -9.999 -99.9 -99.99 -9.99
2019/08/21 07:24 EDT    2.16   2.56    3   95    4  74.7  76.6 1015.0 -9.9 -9.999 -99.9 -99.99 -9.99
2019/08/21 07:30 EDT    2.06   2.45    3  101    4  74.8  76.8 1015.0 -9.9 -9.999 -99.9 -99.99 -9.99
2019/08/21 07:36 EDT    1.96   2.35    2  122    4  75.0  76.8 1015.0 -9.9 -9.999 -99.9 -99.99 -9.99
2019/08/21 07:42 EDT    1.87   2.25    3  120    4  74.8  76.8 1015.1 -9.9 -9.999 -99.9 -99.99 -9.99
2019/08/21 07:48 EDT    1.78   2.14    3  130    4  75.0  77.0 1015.1 -9.9 -9.999 -99.9 -99.99 -9.99
2019/08/21 07:54 EDT    1.69   2.05    3  133    6  75.0  77.0 1015.0 -9.9 -9.999 -99.9 -99.99 -9.99
2019/08/21 08:00 EDT    1.61   1.97    5  139    8  74.8  77.2 1015.1 -9.9 -9.999 -99.9 -99.99 -9.99
2019/08/21 08:06 EDT    1.53   1.90    6  135    8  74.8  77.2 1015.0 -9.9 -9.999 -99.9 -99.99 -9.99
2019/08/21 08:12 EDT    1.45   1.84    6  137    8  74.7  77.4 1014.9 -9.9 -9.999 -99.9 -99.99 -9.99
2019/08/21 08:18 EDT    1.38   1.77    6  142    8  74.8  77.4 1014.9 -9.9 -9.999 -99.9 -99.99 -9.99
2019/08/21 08:24 EDT    1.32   1.70    5  145    8  74.8  77.5 1014.8 -9.9 -9.999 -99.9 -99.99 -9.99
2019/08/21 08:30 EDT    1.25   1.63    5  141    9  75.0  77.5 1014.8 -9.9 -9.999 -99.9 -99.99 -9.99
2019/08/21 08:36 EDT    1.19   1.54    5  145    8  75.2  77.5 1014.8 -9.9 -9.999 -99.9 -99.99 -9.99
2019/08/21 08:42 EDT    1.13   1.44    5  149    8  75.2  77.5 1014.7 -9.9 -9.999 -99.9 -99.99 -9.99
2019/08/21 08:48 EDT    1.08   1.34    5  138    8  75.6  77.5 1014.4 -9.9 -9.999 -99.9 -99.99 -9.99
2019/08/21 08:54 EDT    1.04   1.24    4  138    9  75.7  77.5 1014.3 -9.9 -9.999 -99.9 -99.99 -9.99
2019/08/21 09:00 EDT    0.99   1.15    6  136    8  75.6  77.4 1014.3 -9.9 -9.999 -99.9 -99.99 -9.99
2019/08/21 09:06 EDT    0.96   1.10    5  133    7  75.6  77.5 1014.4 -9.9 -9.999 -99.9 -99.99 -9.99
2019/08/21 09:12 EDT    0.92   1.11    5  136    6  75.7  77.5 1014.3 -9.9 -9.999 -99.9 -99.99 -9.99
2019/08/21 09:18 EDT    0.90   1.14    5  140    7  76.1  77.5 1014.2 -9.9 -9.999 -99.9 -99.99 -9.99
2019/08/21 09:24 EDT    0.87   1.17    6  155    8  76.3  77.5 1014.4 -9.9 -9.999 -99.9 -99.99 -9.99
2019/08/21 09:30 EDT    0.86   1.18    6  154    9  76.3  77.7 1014.3 -9.9 -9.999 -99.9 -99.99 -9.99
2019/08/21 09:36 EDT    0.85   1.19    6  155    9  76.3  77.7 1014.3 -9.9 -9.999 -99.9 -99.99 -9.99
2019/08/21 09:42 EDT    0.85   1.18    6  155    9  76.6  77.5 1014.2 -9.9 -9.999 -99.9 -99.99 -9.99
2019/08/21 09:48 EDT    0.85   1.18    7  151    9  76.6  77.5 1014.2 -9.9 -9.999 -99.9 -99.99 -9.99
2019/08/21 09:54 EDT    0.86   1.19    5  159    9  76.6  77.5 1014.1 -9.9 -9.999 -99.9 -99.99 -9.99
2019/08/21 10:00 EDT    0.88   1.20    7  161    9  76.6  77.5 1014.1 -9.9 -9.999 -99.9 -99.99 -9.99
2019/08/21 10:06 EDT    0.91   1.23    6  157    8  76.6  77.5 1013.9 -9.9 -9.999 -99.9 -99.99 -9.99
2019/08/21 10:12 EDT    0.95   1.27    5  149    7  77.2  77.5 1013.8 -9.9 -9.999 -99.9 -99.99 -9.99
2019/08/21 10:18 EDT    0.99   1.36    5  155    8  77.4  77.5 1013.8 -9.9 -9.999 -99.9 -99.99 -9.99
2019/08/21 10:24 EDT    1.04   1.46    7  159    8  77.5  77.7 1013.8 -9.9 -9.999 -99.9 -99.99 -9.99
2019/08/21 10:30 EDT    1.10   1.58    7  164    9  77.2  77.7 1013.8 -9.9 -9.999 -99.9 -99.99 -9.99
2019/08/21 10:36 EDT    1.17   1.71    6  165    9  77.4  77.9 1013.8 -9.9 -9.999 -99.9 -99.99 -9.99
2019/08/21 10:42 EDT    1.25   1.82    6  170    9  77.5  77.9 1013.6 -9.9 -9.999 -99.9 -99.99 -9.99
2019/08/21 10:48 EDT    1.33   1.92    6  174    7  77.7  77.9 1013.6 -9.9 -9.999 -99.9 -99.99 -9.99
2019/08/21 10:54 EDT    1.42   2.01    6  186    8  78.3  77.7 1013.6 -9.9 -9.999 -99.9 -99.99 -9.99
2019/08/21 11:00 EDT    1.52   2.08    7  185   10  78.1  77.9 1013.6 -9.9 -9.999 -99.9 -99.99 -9.99
2019/08/21 11:06 EDT    1.63   2.17    7  181    9  77.9  77.9 1013.6 -9.9 -9.999 -99.9 -99.99 -9.99
2019/08/21 11:12 EDT    1.74   2.23    8  174   10  78.1  78.1 1013.5 -9.9 -9.999 -99.9 -99.99 -9.99
2019/08/21 11:18 EDT    1.86   2.31    7  182    9  78.1  78.1 1013.4 -9.9 -9.999 -99.9 -99.99 -9.99
2019/08/21 11:24 EDT    1.98   2.42    6  190    8  78.3  78.1 1013.3 -9.9 -9.999 -99.9 -99.99 -9.99
2019/08/21 11:30 EDT    2.11   2.53    6  183    8  78.1  78.1 1013.2 -9.9 -9.999 -99.9 -99.99 -9.99
2019/08/21 11:36 EDT    2.24   2.64    7  183    8  78.3  78.3 1013.2 -9.9 -9.999 -99.9 -99.99 -9.99
2019/08/21 11:42 EDT    2.38   2.78    6  189    8  78.6  78.3 1013.2 -9.9 -9.999 -99.9 -99.99 -9.99
2019/08/21 11:48 EDT    2.52   2.92    5  190    7  78.8  78.3 1013.0 -9.9 -9.999 -99.9 -99.99 -9.99
2019/08/21 11:54 EDT    2.66   3.05    5  191    7  79.0  78.4 1013.0 -9.9 -9.999 -99.9 -99.99 -9.99
2019/08/21 12:00 EDT    2.81   3.21    6  185    8  78.8  78.4 1012.9 -9.9 -9.999 -99.9 -99.99 -9.99
2019/08/21 12:06 EDT    2.96   3.35    7  188    8  78.8  78.4 1012.9 -9.9 -9.999 -99.9 -99.99 -9.99
2019/08/21 12:12 EDT    3.10   3.49    6  198    8  79.3  78.4 1012.8 -9.9 -9.999 -99.9 -99.99 -9.99
2019/08/21 12:18 EDT    3.25   3.62    6  190    7  79.0  78.6 1012.7 -9.9 -9.999 -99.9 -99.99 -9.99
2019/08/21 12:24 EDT    3.39   3.76    6  209    7  79.0  78.6 1012.9 -9.9 -9.999 -99.9 -99.99 -9.99
2019/08/21 12:30 EDT    3.54   3.88    6  207    7  79.0  78.6 1012.9 -9.9 -9.999 -99.9 -99.99 -9.99
2019/08/21 12:36 EDT    3.68   4.01    6  196    7  79.3  78.8 1012.9 -9.9 -9.999 -99.9 -99.99 -9.99
2019/08/21 12:42 EDT    3.82   4.13    6  192    6  79.3  78.8 1012.9 -9.9 -9.999 -99.9 -99.99 -9.99
2019/08/21 12:48 EDT    3.96   4.27    4  191    6  79.7  78.8 1013.0 -9.9 -9.999 -99.9 -99.99 -9.99
2019/08/21 12:54 EDT    4.10   4.38    3  206    5  80.1  79.0 1013.0 -9.9 -9.999 -99.9 -99.99 -9.99
2019/08/21 13:00 EDT    4.23   4.50    3  197    5  79.5  79.0 1012.9 -9.9 -9.999 -99.9 -99.99 -9.99
2019/08/21 13:06 EDT    4.36   4.61    4  181    4  78.8  79.0 1012.7 -9.9 -9.999 -99.9 -99.99 -9.99
2019/08/21 13:12 EDT    4.49   4.73    4  179    5  78.8  79.0 1012.5 -9.9 -9.999 -99.9 -99.99 -9.99
2019/08/21 13:18 EDT    4.61   4.89    5  187    6  79.3  78.3 1012.3 -9.9 -9.999 -99.9 -99.99 -9.99
2019/08/21 13:24 EDT    4.73   5.04    6  200    7  79.5  78.3 1012.3 -9.9 -9.999 -99.9 -99.99 -9.99
2019/08/21 13:30 EDT    4.84   5.21    7  197    8  79.3  78.3 1012.2 -9.9 -9.999 -99.9 -99.99 -9.99
2019/08/21 13:36 EDT    4.95   5.36    8  186    9  79.5  77.9 1012.1 -9.9 -9.999 -99.9 -99.99 -9.99
2019/08/21 13:42 EDT    5.06   5.51    8  181   10  79.5  77.4 1012.0 -9.9 -9.999 -99.9 -99.99 -9.99
2019/08/21 13:48 EDT    5.16   5.63    8  173   10  80.1  77.0 1011.8 -9.9 -9.999 -99.9 -99.99 -9.99
2019/08/21 13:54 EDT    5.25   5.73   10  179   12  80.2  76.8 1011.9 -9.9 -9.999 -99.9 -99.99 -9.99
2019/08/21 14:00 EDT    5.35   5.80    8  173   11  80.4  76.6 1011.8 -9.9 -9.999 -99.9 -99.99 -9.99
2019/08/21 14:06 EDT    5.44   5.88    7  174   10  80.2  76.6 1011.9 -9.9 -9.999 -99.9 -99.99 -9.99
2019/08/21 14:12 EDT    5.52   5.95    9  166   12  80.1  76.6 1011.8 -9.9 -9.999 -99.9 -99.99 -9.99
2019/08/21 14:18 EDT    5.61   6.04    6  156    9  80.2  76.6 1011.7 -9.9 -9.999 -99.9 -99.99 -9.99
2019/08/21 14:24 EDT    5.68   6.13    9  161   11  80.2  76.6 1011.6 -9.9 -9.999 -99.9 -99.99 -9.99
2019/08/21 14:30 EDT    5.76   6.23    7  171   11  80.6  76.8 1011.7 -9.9 -9.999 -99.9 -99.99 -9.99
2019/08/21 14:36 EDT    5.83   6.33    9  177   10  80.6  76.6 1011.6 -9.9 -9.999 -99.9 -99.99 -9.99
2019/08/21 14:42 EDT    5.90   6.45    9  183   12  81.1  76.6 1011.4 -9.9 -9.999 -99.9 -99.99 -9.99
2019/08/21 14:48 EDT    5.96   6.56    9  186   11  81.3  76.6 1011.3 -9.9 -9.999 -99.9 -99.99 -9.99
2019/08/21 14:54 EDT    6.02   6.63   10  184   13  81.7  76.6 1011.2 -9.9 -9.999 -99.9 -99.99 -9.99
2019/08/21 15:00 EDT    6.07   6.71   10  189   12  81.9  76.5 1011.2 -9.9 -9.999 -99.9 -99.99 -9.99
2019/08/21 15:06 EDT    6.12   6.79   11  188   12  81.9  76.5 1011.3 -9.9 -9.999 -99.9 -99.99 -9.99
2019/08/21 15:12 EDT    6.17   6.83   10  188   12  81.7  76.5 1011.3 -9.9 -9.999 -99.9 -99.99 -9.99
2019/08/21 15:18 EDT    6.21   6.85   11  189   12  81.3  76.5 1011.3 -9.9 -9.999 -99.9 -99.99 -9.99
2019/08/21 15:24 EDT    6.24   6.88   11  189   12  80.8  76.3 1011.2 -9.9 -9.999 -99.9 -99.99 -9.99
2019/08/21 15:30 EDT    6.28   6.90   11  189   13  80.6  76.3 1011.2 -9.9 -9.999 -99.9 -99.99 -9.99
2019/08/21 15:36 EDT    6.30   6.91   11  196   12  80.4  76.3 1011.1 -9.9 -9.999 -99.9 -99.99 -9.99
2019/08/21 15:42 EDT    6.32   6.93   11  189   12  80.4  76.3 1011.0 -9.9 -9.999 -99.9 -99.99 -9.99
2019/08/21 15:48 EDT    6.33   6.92   11  189   12  80.6  76.1 1010.9 -9.9 -9.999 -99.9 -99.99 -9.99
2019/08/21 15:54 EDT    6.34   6.93   11  192   12  80.8  76.1 1010.8 -9.9 -9.999 -99.9 -99.99 -9.99
2019/08/21 16:00 EDT    6.34   6.95   11  193   13  80.6  76.1 1010.9 -9.9 -9.999 -99.9 -99.99 -9.99
2019/08/21 16:06 EDT    6.33   6.92   12  192   13  80.6  75.9 1010.9 -9.9 -9.999 -99.9 -99.99 -9.99
2019/08/21 16:12 EDT    6.32   6.87   12  191   14  80.1  75.9 1010.8 -9.9 -9.999 -99.9 -99.99 -9.99
2019/08/21 16:18 EDT    6.29   6.81   12  191   13  79.7  75.9 1010.8 -9.9 -9.999 -99.9 -99.99 -9.99
2019/08/21 16:24 EDT    6.26   6.78   11  192   12  79.5  75.9 1010.9 -9.9 -9.999 -99.9 -99.99 -9.99
2019/08/21 16:30 EDT    6.23   6.71    9  192   11  79.3  75.9 1010.8 -9.9 -9.999 -99.9 -99.99 -9.99
2019/08/21 16:36 EDT    6.18   6.65   11  193   12  79.7  75.9 1010.7 -9.9 -9.999 -99.9 -99.99 -9.99
2019/08/21 16:42 EDT    6.13   6.55   10  193   11  79.7  75.9 1010.7 -9.9 -9.999 -99.9 -99.99 -9.99
2019/08/21 16:48 EDT    6.07   6.48   11  199   11  80.1  75.9 1010.5 -9.9 -9.999 -99.9 -99.99 -9.99
2019/08/21 16:54 EDT    6.00   6.42   11  196   13  79.9  75.9 1010.4 -9.9 -9.999 -99.9 -99.99 -9.99
2019/08/21 17:00 EDT    5.92   6.35   11  199   12  79.9  75.9 1010.4 -9.9 -9.999 -99.9 -99.99 -9.99
2019/08/21 17:06 EDT    5.84   6.25   12  196   13  80.1  75.9 1010.3 -9.9 -9.999 -99.9 -99.99 -9.99
2019/08/21 17:12 EDT    5.74   6.14   12  197   14  80.1  75.9 1010.5 -9.9 -9.999 -99.9 -99.99 -9.99
2019/08/21 17:18 EDT    5.65   6.04   12  198   13  80.1  76.1 1010.4 -9.9 -9.999 -99.9 -99.99 -9.99
2019/08/21 17:24 EDT    5.54   5.96   12  195   14  80.6  76.1 1010.3 -9.9 -9.999 -99.9 -99.99 -9.99
2019/08/21 17:30 EDT    5.43   5.86   13  198   14  80.8  76.1 1010.4 -9.9 -9.999 -99.9 -99.99 -9.99
2019/08/21 17:36 EDT    5.31   5.75   13  200   15  80.1  76.1 1010.3 -9.9 -9.999 -99.9 -99.99 -9.99
2019/08/21 17:42 EDT    5.19   5.61   15  201   16  79.9  76.1 1010.1 -9.9 -9.999 -99.9 -99.99 -9.99
2019/08/21 17:48 EDT    5.06   5.48   14  203   16  79.9  76.1 1010.3 -9.9 -9.999 -99.9 -99.99 -9.99
2019/08/21 17:54 EDT    4.93   5.33   13  206   15  79.9  76.1 1010.3 -9.9 -9.999 -99.9 -99.99 -9.99
2019/08/21 18:00 EDT    4.80   5.21   13  209   16  79.9  76.1 1010.3 -9.9 -9.999 -99.9 -99.99 -9.99
2019/08/21 18:06 EDT    4.66   5.08   11  222   14  79.5  76.1 1010.5 -9.9 -9.999 -99.9 -99.99 -9.99
2019/08/21 18:12 EDT    4.53   4.93    8  235   12  79.2  76.1 1010.4 -9.9 -9.999 -99.9 -99.99 -9.99
2019/08/21 18:18 EDT    4.39   4.76    7  267   10  79.7  76.1 1010.4 -9.9 -9.999 -99.9 -99.99 -9.99
2019/08/21 18:24 EDT    4.24   4.61    2  285    8  80.1  76.1 1010.3 -9.9 -9.999 -99.9 -99.99 -9.99
2019/08/21 18:30 EDT    4.10   4.50    8  223   10  80.1  76.1 1010.5 -9.9 -9.999 -99.9 -99.99 -9.99
2019/08/21 18:36 EDT    3.96   4.38   10  230   14  80.2  76.1 1010.5 -9.9 -9.999 -99.9 -99.99 -9.99
2019/08/21 18:42 EDT    3.82   4.29    8  220   10  79.9  76.3 1010.4 -9.9 -9.999 -99.9 -99.99 -9.99
2019/08/21 18:48 EDT    3.68   4.18    9  225   11  79.7  76.5 1010.5 -9.9 -9.999 -99.9 -99.99 -9.99
2019/08/21 18:54 EDT    3.54   4.04   10  227   11  79.5  76.6 1010.3 -9.9 -9.999 -99.9 -99.99 -9.99
2019/08/21 19:00 EDT    3.41   3.92    8  221   11  79.3  76.6 1010.1 -9.9 -9.999 -99.9 -99.99 -9.99
2019/08/21 19:06 EDT    3.28   3.81    9  211   11  79.3  77.0 1010.0 -9.9 -9.999 -99.9 -99.99 -9.99
2019/08/21 19:12 EDT    3.15   3.70   13  217   17  79.3  76.8 1010.1 -9.9 -9.999 -99.9 -99.99 -9.99
2019/08/21 19:18 EDT    3.02   3.59   16  233   20  78.8  77.4 1010.3 -9.9 -9.999 -99.9 -99.99 -9.99
2019/08/21 19:24 EDT    2.89   3.48   15  233   18  78.4  77.2 1010.3 -9.9 -9.999 -99.9 -99.99 -9.99
2019/08/21 19:30 EDT    2.77   3.37   15  227   17  78.1  77.5 1010.3 -9.9 -9.999 -99.9 -99.99 -9.99
2019/08/21 19:36 EDT    2.66   3.19   14  230   18  78.3  77.9 1010.3 -9.9 -9.999 -99.9 -99.99 -9.99
2019/08/21 19:42 EDT    2.54   3.04   14  229   17  78.3  77.9 1010.3 -9.9 -9.999 -99.9 -99.99 -9.99
2019/08/21 19:48 EDT    2.43   2.90   13  224   15  78.4  77.5 1010.3 -9.9 -9.999 -99.9 -99.99 -9.99
2019/08/21 19:54 EDT    2.32   2.78   16  236   19  79.0  77.4 1010.3 -9.9 -9.999 -99.9 -99.99 -9.99
2019/08/21 20:00 EDT    2.22   2.67   14  239   18  79.3  77.4 1010.2 -9.9 -9.999 -99.9 -99.99 -9.99
2019/08/21 20:06 EDT    2.12   2.55   12  236   15  79.2  77.7 1010.2 -9.9 -9.999 -99.9 -99.99 -9.99
2019/08/21 20:12 EDT    2.02   2.43   11  234   14  78.8  77.9 1010.2 -9.9 -9.999 -99.9 -99.99 -9.99
2019/08/21 20:18 EDT    1.93   2.32   11  242   14  79.0  78.4 1010.4 -9.9 -9.999 -99.9 -99.99 -9.99
2019/08/21 20:24 EDT    1.84   2.23   13  240   17  78.4  78.8 1010.6 -9.9 -9.999 -99.9 -99.99 -9.99
2019/08/21 20:30 EDT    1.75   2.15   11  244   14  78.1  79.0 1010.8 -9.9 -9.999 -99.9 -99.99 -9.99
2019/08/21 20:36 EDT    1.67   2.07   11  239   14  77.9  79.2 1010.9 -9.9 -9.999 -99.9 -99.99 -9.99
2019/08/21 20:42 EDT    1.59   1.99   10  244   14  77.9  79.2 1010.8 -9.9 -9.999 -99.9 -99.99 -9.99
2019/08/21 20:48 EDT    1.51   1.88   14  230   18  77.4  79.0 1010.8 -9.9 -9.999 -99.9 -99.99 -9.99
2019/08/21 20:54 EDT    1.44   1.81   16  227   17  77.0  78.8 1010.8 -9.9 -9.999 -99.9 -99.99 -9.99
2019/08/21 21:00 EDT    1.37   1.73   14  239   18  77.2  78.8 1010.9 -9.9 -9.999 -99.9 -99.99 -9.99
2019/08/21 21:06 EDT    1.30   1.66   16  233   19  76.6  78.8 1011.0 -9.9 -9.999 -99.9 -99.99 -9.99
2019/08/21 21:12 EDT    1.24   1.58   12  243   18  77.0  78.8 1011.1 -9.9 -9.999 -99.9 -99.99 -9.99
2019/08/21 21:18 EDT    1.18   1.47    9  253   12  77.5  78.6 1011.1 -9.9 -9.999 -99.9 -99.99 -9.99
2019/08/21 21:24 EDT    1.13   1.37   11  237   14  77.9  78.6 1011.2 -9.9 -9.999 -99.9 -99.99 -9.99
2019/08/21 21:30 EDT    1.08   1.28   11  230   12  77.5  78.8 1011.3 -9.9 -9.999 -99.9 -99.99 -9.99
2019/08/21 21:36 EDT    1.03   1.20   12  228   14  77.0  78.8 1011.2 -9.9 -9.999 -99.9 -99.99 -9.99
2019/08/21 21:42 EDT    0.99   1.15   11  230   14  76.8  78.8 1011.2 -9.9 -9.999 -99.9 -99.99 -9.99
2019/08/21 21:48 EDT    0.95   1.10   12  234   15  77.2  78.8 1011.2 -9.9 -9.999 -99.9 -99.99 -9.99
2019/08/21 21:54 EDT    0.92   1.08   12  233   15  77.0  78.8 1011.2 -9.9 -9.999 -99.9 -99.99 -9.99
2019/08/21 22:00 EDT    0.90   1.09   11  243   15  77.0  78.6 1011.2 -9.9 -9.999 -99.9 -99.99 -9.99
2019/08/21 22:06 EDT    0.88   1.10   12  239   16  77.0  78.6 1011.2 -9.9 -9.999 -99.9 -99.99 -9.99
2019/08/21 22:12 EDT    0.87   1.15   11  259   16  77.0  78.4 1011.4 -9.9 -9.999 -99.9 -99.99 -9.99
2019/08/21 22:18 EDT    0.87   1.20    8  324   15  76.6  78.6 1011.4 -9.9 -9.999 -99.9 -99.99 -9.99
2019/08/21 22:24 EDT    0.87   1.22    4  305    9  76.5  78.8 1011.3 -9.9 -9.999 -99.9 -99.99 -9.99
2019/08/21 22:30 EDT    0.88   1.23    6  335    7  76.3  78.8 1011.3 -9.9 -9.999 -99.9 -99.99 -9.99
2019/08/21 22:36 EDT    0.90   1.25    5  331    8  76.3  78.8 1011.2 -9.9 -9.999 -99.9 -99.99 -9.99
2019/08/21 22:42 EDT    0.92   1.25    5  308    6  76.3  78.6 1011.3 -9.9 -9.999 -99.9 -99.99 -9.99
2019/08/21 22:48 EDT    0.96   1.25    3  312    5  76.3  78.6 1011.3 -9.9 -9.999 -99.9 -99.99 -9.99
2019/08/21 22:54 EDT    1.00   1.29    5  256    7  76.5  78.4 1011.1 -9.9 -9.999 -99.9 -99.99 -9.99
2019/08/21 23:00 EDT    1.05   1.34    4  263    9  76.5  78.4 1011.1 -9.9 -9.999 -99.9 -99.99 -9.99
2019/08/21 23:06 EDT    1.11   1.41    5  254    6  76.6  78.4 1011.2 -9.9 -9.999 -99.9 -99.99 -9.99
2019/08/21 23:12 EDT    1.17   1.47    5  264    6  76.6  78.4 1011.1 -9.9 -9.999 -99.9 -99.99 -9.99
2019/08/21 23:18 EDT    1.25   1.53    4  279    5  76.6  78.3 1011.0 -9.9 -9.999 -99.9 -99.99 -9.99
2019/08/21 23:24 EDT    1.33   1.62    4  250    4  76.6  78.3 1010.9 -9.9 -9.999 -99.9 -99.99 -9.99
2019/08/21 23:30 EDT    1.41   1.72    2  307    3  76.5  78.3 1010.8 -9.9 -9.999 -99.9 -99.99 -9.99
2019/08/21 23:36 EDT    1.51   1.84    2  332    3  76.5  78.3 1010.9 -9.9 -9.999 -99.9 -99.99 -9.99
2019/08/21 23:42 EDT    1.61   1.99    2  311    3  76.3  78.3 1010.9 -9.9 -9.999 -99.9 -99.99 -9.99
2019/08/21 23:48 EDT    1.71   2.13    2  235    2  76.3  78.3 1011.0 -9.9 -9.999 -99.9 -99.99 -9.99
2019/08/21 23:54 EDT    1.82   2.26    1  238    2  76.3  78.3 1011.0 -9.9 -9.999 -99.9 -99.99 -9.99
2019/08/22 00:00 EDT    1.94   2.39    1  277    2  76.1  78.3 1011.0 -9.9 -9.999 -99.9 -99.99 -9.99
2019/08/22 00:06 EDT    2.06   2.49    0   24    1  76.1  78.3 1010.9 -9.9 -9.999 -99.9 -99.99 -9.99
2019/08/22 00:12 EDT    2.18   2.60    0   57    1  76.1  78.3 1010.9 -9.9 -9.999 -99.9 -99.99 -9.99
2019/08/22 00:18 EDT    2.31   2.69    0  153    1  75.9  78.3 1010.9 -9.9 -9.999 -99.9 -99.99 -9.99
2019/08/22 00:24 EDT    2.44   2.77    0  221    2  75.7  78.4 1010.8 -9.9 -9.999 -99.9 -99.99 -9.99
2019/08/22 00:30 EDT    2.57   2.84    0  178    1  75.7  78.4 1010.8 -9.9 -9.999 -99.9 -99.99 -9.99
2019/08/22 00:36 EDT    2.70   2.92    0  334    1  75.7  78.4 1010.8 -9.9 -9.999 -99.9 -99.99 -9.99
2019/08/22 00:42 EDT    2.83   3.05    0  186    1  75.7  78.3 1010.8 -9.9 -9.999 -99.9 -99.99 -9.99
2019/08/22 00:48 EDT    2.96   3.19    0  220    2  75.6  78.3 1010.8 -9.9 -9.999 -99.9 -99.99 -9.99
2019/08/22 00:54 EDT    3.09   3.35    1  197    2  75.4  78.3 1010.8 -9.9 -9.999 -99.9 -99.99 -9.99
2019/08/22 01:00 EDT    3.22   3.50    1  191    2  75.4  78.3 1010.8 -9.9 -9.999 -99.9 -99.99 -9.99
2019/08/22 01:06 EDT    3.35   3.66    0  336    1  75.6  78.4 1010.7 -9.9 -9.999 -99.9 -99.99 -9.99
2019/08/22 01:12 EDT    3.48   3.79    1  270    2  75.7  78.4 1010.8 -9.9 -9.999 -99.9 -99.99 -9.99
2019/08/22 01:18 EDT    3.60   3.90    2  221    2  75.9  78.4 1010.7 -9.9 -9.999 -99.9 -99.99 -9.99
2019/08/22 01:24 EDT    3.73   3.99    1  195    2  75.7  78.4 1010.6 -9.9 -9.999 -99.9 -99.99 -9.99
2019/08/22 01:30 EDT    3.84   4.07    1  273    2  75.7  78.3 1010.5 -9.9 -9.999 -99.9 -99.99 -9.99
2019/08/22 01:36 EDT    3.96   4.14    1  189    2  75.6  78.3 1010.5 -9.9 -9.999 -99.9 -99.99 -9.99
2019/08/22 01:42 EDT    4.07   4.22    3  182    3  75.4  78.3 1010.4 -9.9 -9.999 -99.9 -99.99 -9.99
2019/08/22 01:48 EDT    4.18   4.30    3  165    3  75.0  78.3 1010.0 -9.9 -9.999 -99.9 -99.99 -9.99
2019/08/22 01:54 EDT    4.29   4.40    2  154    3  75.0  78.3 1009.9 -9.9 -9.999 -99.9 -99.99 -9.99
2019/08/22 02:00 EDT    4.39   4.53    2  152    3  74.8  78.3 1010.0 -9.9 -9.999 -99.9 -99.99 -9.99
2019/08/22 02:06 EDT    4.49   4.68    1  143    3  74.8  78.3 1010.0 -9.9 -9.999 -99.9 -99.99 -9.99
2019/08/22 02:12 EDT    4.58   4.83    1  188    2  74.8  78.1 1010.1 -9.9 -9.999 -99.9 -99.99 -9.99
2019/08/22 02:18 EDT    4.67   4.94    1  176    1  74.8  77.9 1010.0 -9.9 -9.999 -99.9 -99.99 -9.99
2019/08/22 02:24 EDT    4.76   5.03    0  162    1  74.7  77.7 1009.9 -9.9 -9.999 -99.9 -99.99 -9.99
2019/08/22 02:30 EDT    4.84 -99.99 -999 -999 -999 -99.9 -99.9 -999.9 -9.9 -9.999 -99.9 -99.99 -9.99
2019/08/22 02:36 EDT    4.93 -99.99 -999 -999 -999 -99.9 -99.9 -999.9 -9.9 -9.999 -99.9 -99.99 -9.99
2019/08/22 02:42 EDT    5.00 -99.99 -999 -999 -999 -99.9 -99.9 -999.9 -9.9 -9.999 -99.9 -99.99 -9.99

Revised: 08/08/2018
NOAA / National Ocean Service
Web site owner: Center for Operational Oceanographic Products and Services